<?xml version="1.0" encoding="UTF-8" standalone="no" ?>
<gpx xmlns="http://www.topografix.com/GPX/1/1" xmlns:xsi="http://www.w3.org/2001/XMLSchema-instance" xsi:schemaLocation="http://www.topografix.com/GPX/1/1 http://www.topografix.com/GPX/1/1/gpx.xsd" version="1.1" creator="VisuGPX - https://www.visugpx.com">
  <metadata>
    <name>Champigny 2018 C les Enclos du Seil </name>
    <desc><![CDATA[File with points/tracks from Locus Map/3.25.1]]></desc>
  </metadata>
  <trk>
    <name><![CDATA[2018-08-20 champagny Seil]]></name>
    <trkseg>
      <trkpt lat="45.45496" lon="6.69656">
        <ele>1248.57</ele>
        <time>2018-08-20T08:23:25.000Z</time>
      </trkpt>
      <trkpt lat="45.45491" lon="6.69669">
        <ele>1253.91</ele>
        <time>2018-08-20T08:23:35.000Z</time>
      </trkpt>
      <trkpt lat="45.45485" lon="6.69682">
        <ele>1259.44</ele>
        <time>2018-08-20T08:23:45.000Z</time>
      </trkpt>
      <trkpt lat="45.4548" lon="6.69696">
        <ele>1261.04</ele>
        <time>2018-08-20T08:23:55.000Z</time>
      </trkpt>
      <trkpt lat="45.45475" lon="6.69712">
        <ele>1259.95</ele>
        <time>2018-08-20T08:24:05.000Z</time>
      </trkpt>
      <trkpt lat="45.45469" lon="6.69723">
        <ele>1260.41</ele>
        <time>2018-08-20T08:24:15.000Z</time>
      </trkpt>
      <trkpt lat="45.45465" lon="6.69741">
        <ele>1259.66</ele>
        <time>2018-08-20T08:24:25.000Z</time>
      </trkpt>
      <trkpt lat="45.4546" lon="6.69752">
        <ele>1259.73</ele>
        <time>2018-08-20T08:24:35.000Z</time>
      </trkpt>
      <trkpt lat="45.45456" lon="6.69766">
        <ele>1262.56</ele>
        <time>2018-08-20T08:24:45.000Z</time>
      </trkpt>
      <trkpt lat="45.45455" lon="6.69783">
        <ele>1262.11</ele>
        <time>2018-08-20T08:24:55.000Z</time>
      </trkpt>
      <trkpt lat="45.4545" lon="6.69797">
        <ele>1264.26</ele>
        <time>2018-08-20T08:25:05.000Z</time>
      </trkpt>
      <trkpt lat="45.45443" lon="6.69809">
        <ele>1264.77</ele>
        <time>2018-08-20T08:25:15.000Z</time>
      </trkpt>
      <trkpt lat="45.45438" lon="6.6982">
        <ele>1266.42</ele>
        <time>2018-08-20T08:25:25.000Z</time>
      </trkpt>
      <trkpt lat="45.45433" lon="6.69835">
        <ele>1265.69</ele>
        <time>2018-08-20T08:25:35.000Z</time>
      </trkpt>
      <trkpt lat="45.45429" lon="6.69851">
        <ele>1264.56</ele>
        <time>2018-08-20T08:25:45.000Z</time>
      </trkpt>
      <trkpt lat="45.45424" lon="6.69865">
        <ele>1264.24</ele>
        <time>2018-08-20T08:25:55.000Z</time>
      </trkpt>
      <trkpt lat="45.45417" lon="6.69882">
        <ele>1262.76</ele>
        <time>2018-08-20T08:26:05.000Z</time>
      </trkpt>
      <trkpt lat="45.4541" lon="6.69895">
        <ele>1261.72</ele>
        <time>2018-08-20T08:26:15.000Z</time>
      </trkpt>
      <trkpt lat="45.45404" lon="6.69907">
        <ele>1260.71</ele>
        <time>2018-08-20T08:26:25.000Z</time>
      </trkpt>
      <trkpt lat="45.45396" lon="6.69921">
        <ele>1255.36</ele>
        <time>2018-08-20T08:26:35.000Z</time>
      </trkpt>
      <trkpt lat="45.45389" lon="6.6993">
        <ele>1253.16</ele>
        <time>2018-08-20T08:26:45.000Z</time>
      </trkpt>
      <trkpt lat="45.45381" lon="6.69938">
        <ele>1251.84</ele>
        <time>2018-08-20T08:26:55.000Z</time>
      </trkpt>
      <trkpt lat="45.4537" lon="6.69944">
        <ele>1254.45</ele>
        <time>2018-08-20T08:27:05.000Z</time>
      </trkpt>
      <trkpt lat="45.45358" lon="6.69948">
        <ele>1253.75</ele>
        <time>2018-08-20T08:27:15.000Z</time>
      </trkpt>
      <trkpt lat="45.45347" lon="6.6995">
        <ele>1250.69</ele>
        <time>2018-08-20T08:27:25.000Z</time>
      </trkpt>
      <trkpt lat="45.45339" lon="6.69953">
        <ele>1251.9</ele>
        <time>2018-08-20T08:27:35.000Z</time>
      </trkpt>
      <trkpt lat="45.45338" lon="6.69954">
        <ele>1253.26</ele>
        <time>2018-08-20T08:27:45.000Z</time>
      </trkpt>
      <trkpt lat="45.45337" lon="6.69968">
        <ele>1251.15</ele>
        <time>2018-08-20T08:27:55.000Z</time>
      </trkpt>
      <trkpt lat="45.45335" lon="6.69976">
        <ele>1251.1</ele>
        <time>2018-08-20T08:28:05.000Z</time>
      </trkpt>
      <trkpt lat="45.45333" lon="6.69994">
        <ele>1249.98</ele>
        <time>2018-08-20T08:28:15.000Z</time>
      </trkpt>
      <trkpt lat="45.4533" lon="6.70008">
        <ele>1251.51</ele>
        <time>2018-08-20T08:28:25.000Z</time>
      </trkpt>
      <trkpt lat="45.4533" lon="6.70024">
        <ele>1251.21</ele>
        <time>2018-08-20T08:28:35.000Z</time>
      </trkpt>
      <trkpt lat="45.45327" lon="6.70042">
        <ele>1247.79</ele>
        <time>2018-08-20T08:28:45.000Z</time>
      </trkpt>
      <trkpt lat="45.45328" lon="6.70061">
        <ele>1246.3</ele>
        <time>2018-08-20T08:28:55.000Z</time>
      </trkpt>
      <trkpt lat="45.45331" lon="6.70079">
        <ele>1243.97</ele>
        <time>2018-08-20T08:29:05.000Z</time>
      </trkpt>
      <trkpt lat="45.45335" lon="6.70098">
        <ele>1241.82</ele>
        <time>2018-08-20T08:29:15.000Z</time>
      </trkpt>
      <trkpt lat="45.4533" lon="6.70121">
        <ele>1238.23</ele>
        <time>2018-08-20T08:29:25.000Z</time>
      </trkpt>
      <trkpt lat="45.45333" lon="6.70135">
        <ele>1238.31</ele>
        <time>2018-08-20T08:29:35.000Z</time>
      </trkpt>
      <trkpt lat="45.45332" lon="6.7014">
        <ele>1244.73</ele>
        <time>2018-08-20T08:29:45.000Z</time>
      </trkpt>
      <trkpt lat="45.45332" lon="6.70142">
        <ele>1249.22</ele>
        <time>2018-08-20T08:29:56.000Z</time>
      </trkpt>
      <trkpt lat="45.45332" lon="6.70143">
        <ele>1249.95</ele>
        <time>2018-08-20T08:30:06.000Z</time>
      </trkpt>
      <trkpt lat="45.45331" lon="6.70144">
        <ele>1249.01</ele>
        <time>2018-08-20T08:30:41.000Z</time>
      </trkpt>
      <trkpt lat="45.45332" lon="6.70147">
        <ele>1248.53</ele>
        <time>2018-08-20T08:31:13.000Z</time>
      </trkpt>
      <trkpt lat="45.45332" lon="6.7015">
        <ele>1248.29</ele>
        <time>2018-08-20T08:31:34.000Z</time>
      </trkpt>
      <trkpt lat="45.45332" lon="6.70154">
        <ele>1246.86</ele>
        <time>2018-08-20T08:31:44.000Z</time>
      </trkpt>
      <trkpt lat="45.45342" lon="6.7017">
        <ele>1244.35</ele>
        <time>2018-08-20T08:31:54.000Z</time>
      </trkpt>
      <trkpt lat="45.45342" lon="6.70187">
        <ele>1242.41</ele>
        <time>2018-08-20T08:32:04.000Z</time>
      </trkpt>
      <trkpt lat="45.45344" lon="6.70192">
        <ele>1242.03</ele>
        <time>2018-08-20T08:32:14.000Z</time>
      </trkpt>
      <trkpt lat="45.45344" lon="6.70194">
        <ele>1245.22</ele>
        <time>2018-08-20T08:32:28.000Z</time>
      </trkpt>
      <trkpt lat="45.45346" lon="6.70204">
        <ele>1249.69</ele>
        <time>2018-08-20T08:32:38.000Z</time>
      </trkpt>
      <trkpt lat="45.45348" lon="6.70231">
        <ele>1247.53</ele>
        <time>2018-08-20T08:32:48.000Z</time>
      </trkpt>
      <trkpt lat="45.45342" lon="6.7025">
        <ele>1246.49</ele>
        <time>2018-08-20T08:32:58.000Z</time>
      </trkpt>
      <trkpt lat="45.45343" lon="6.70254">
        <ele>1248.77</ele>
        <time>2018-08-20T08:33:08.000Z</time>
      </trkpt>
      <trkpt lat="45.45344" lon="6.70267">
        <ele>1249.78</ele>
        <time>2018-08-20T08:33:18.000Z</time>
      </trkpt>
      <trkpt lat="45.45346" lon="6.70275">
        <ele>1249.89</ele>
        <time>2018-08-20T08:33:28.000Z</time>
      </trkpt>
      <trkpt lat="45.45352" lon="6.70293">
        <ele>1250.39</ele>
        <time>2018-08-20T08:33:38.000Z</time>
      </trkpt>
      <trkpt lat="45.45356" lon="6.70305">
        <ele>1251.34</ele>
        <time>2018-08-20T08:33:48.000Z</time>
      </trkpt>
      <trkpt lat="45.45356" lon="6.70316">
        <ele>1252.3</ele>
        <time>2018-08-20T08:33:58.000Z</time>
      </trkpt>
      <trkpt lat="45.45361" lon="6.70328">
        <ele>1255.95</ele>
        <time>2018-08-20T08:34:08.000Z</time>
      </trkpt>
      <trkpt lat="45.45363" lon="6.70334">
        <ele>1257.89</ele>
        <time>2018-08-20T08:34:18.000Z</time>
      </trkpt>
      <trkpt lat="45.45364" lon="6.70346">
        <ele>1261.43</ele>
        <time>2018-08-20T08:34:28.000Z</time>
      </trkpt>
      <trkpt lat="45.45368" lon="6.70356">
        <ele>1259.85</ele>
        <time>2018-08-20T08:34:38.000Z</time>
      </trkpt>
      <trkpt lat="45.45376" lon="6.70365">
        <ele>1257.37</ele>
        <time>2018-08-20T08:34:48.000Z</time>
      </trkpt>
      <trkpt lat="45.45381" lon="6.70375">
        <ele>1258.93</ele>
        <time>2018-08-20T08:34:58.000Z</time>
      </trkpt>
      <trkpt lat="45.45381" lon="6.70378">
        <ele>1259.2</ele>
        <time>2018-08-20T08:35:11.000Z</time>
      </trkpt>
      <trkpt lat="45.45386" lon="6.70384">
        <ele>1261.62</ele>
        <time>2018-08-20T08:35:21.000Z</time>
      </trkpt>
      <trkpt lat="45.45394" lon="6.70386">
        <ele>1264.74</ele>
        <time>2018-08-20T08:35:31.000Z</time>
      </trkpt>
      <trkpt lat="45.454" lon="6.70403">
        <ele>1264.9</ele>
        <time>2018-08-20T08:35:41.000Z</time>
      </trkpt>
      <trkpt lat="45.45403" lon="6.70417">
        <ele>1268.44</ele>
        <time>2018-08-20T08:35:51.000Z</time>
      </trkpt>
      <trkpt lat="45.45406" lon="6.70427">
        <ele>1270.99</ele>
        <time>2018-08-20T08:36:01.000Z</time>
      </trkpt>
      <trkpt lat="45.45404" lon="6.70438">
        <ele>1269.72</ele>
        <time>2018-08-20T08:36:11.000Z</time>
      </trkpt>
      <trkpt lat="45.45409" lon="6.70441">
        <ele>1269.19</ele>
        <time>2018-08-20T08:36:21.000Z</time>
      </trkpt>
      <trkpt lat="45.45409" lon="6.70442">
        <ele>1270.26</ele>
        <time>2018-08-20T08:36:32.000Z</time>
      </trkpt>
      <trkpt lat="45.45412" lon="6.70444">
        <ele>1274.61</ele>
        <time>2018-08-20T08:36:42.000Z</time>
      </trkpt>
      <trkpt lat="45.45414" lon="6.70447">
        <ele>1275.68</ele>
        <time>2018-08-20T08:36:52.000Z</time>
      </trkpt>
      <trkpt lat="45.45416" lon="6.70458">
        <ele>1278.77</ele>
        <time>2018-08-20T08:37:02.000Z</time>
      </trkpt>
      <trkpt lat="45.45413" lon="6.70466">
        <ele>1280.34</ele>
        <time>2018-08-20T08:37:12.000Z</time>
      </trkpt>
      <trkpt lat="45.45415" lon="6.70488">
        <ele>1284.35</ele>
        <time>2018-08-20T08:37:22.000Z</time>
      </trkpt>
      <trkpt lat="45.45417" lon="6.705">
        <ele>1281.56</ele>
        <time>2018-08-20T08:37:32.000Z</time>
      </trkpt>
      <trkpt lat="45.45419" lon="6.70515">
        <ele>1278.29</ele>
        <time>2018-08-20T08:37:42.000Z</time>
      </trkpt>
      <trkpt lat="45.45419" lon="6.70517">
        <ele>1278.54</ele>
        <time>2018-08-20T08:37:52.000Z</time>
      </trkpt>
      <trkpt lat="45.45422" lon="6.70523">
        <ele>1277.88</ele>
        <time>2018-08-20T08:38:02.000Z</time>
      </trkpt>
      <trkpt lat="45.45423" lon="6.70531">
        <ele>1277.12</ele>
        <time>2018-08-20T08:38:12.000Z</time>
      </trkpt>
      <trkpt lat="45.45422" lon="6.70542">
        <ele>1276.09</ele>
        <time>2018-08-20T08:38:22.000Z</time>
      </trkpt>
      <trkpt lat="45.45422" lon="6.70549">
        <ele>1274.93</ele>
        <time>2018-08-20T08:38:32.000Z</time>
      </trkpt>
      <trkpt lat="45.45423" lon="6.70553">
        <ele>1274.91</ele>
        <time>2018-08-20T08:38:42.000Z</time>
      </trkpt>
      <trkpt lat="45.45424" lon="6.7056">
        <ele>1276.61</ele>
        <time>2018-08-20T08:38:52.000Z</time>
      </trkpt>
      <trkpt lat="45.45424" lon="6.70562">
        <ele>1277.15</ele>
        <time>2018-08-20T08:39:22.000Z</time>
      </trkpt>
      <trkpt lat="45.4543" lon="6.7057">
        <ele>1279.58</ele>
        <time>2018-08-20T08:39:32.000Z</time>
      </trkpt>
      <trkpt lat="45.45431" lon="6.70572">
        <ele>1279.46</ele>
        <time>2018-08-20T08:40:27.000Z</time>
      </trkpt>
      <trkpt lat="45.45435" lon="6.70585">
        <ele>1281.32</ele>
        <time>2018-08-20T08:40:37.000Z</time>
      </trkpt>
      <trkpt lat="45.4544" lon="6.7059">
        <ele>1282.49</ele>
        <time>2018-08-20T08:40:47.000Z</time>
      </trkpt>
      <trkpt lat="45.45446" lon="6.70598">
        <ele>1281.87</ele>
        <time>2018-08-20T08:40:57.000Z</time>
      </trkpt>
      <trkpt lat="45.45446" lon="6.7061">
        <ele>1285.47</ele>
        <time>2018-08-20T08:41:07.000Z</time>
      </trkpt>
      <trkpt lat="45.45446" lon="6.70613">
        <ele>1286.53</ele>
        <time>2018-08-20T08:41:17.000Z</time>
      </trkpt>
      <trkpt lat="45.4545" lon="6.70622">
        <ele>1289.66</ele>
        <time>2018-08-20T08:41:27.000Z</time>
      </trkpt>
      <trkpt lat="45.45451" lon="6.70634">
        <ele>1294.32</ele>
        <time>2018-08-20T08:41:37.000Z</time>
      </trkpt>
      <trkpt lat="45.45453" lon="6.70639">
        <ele>1295.72</ele>
        <time>2018-08-20T08:41:47.000Z</time>
      </trkpt>
      <trkpt lat="45.45454" lon="6.70647">
        <ele>1296.92</ele>
        <time>2018-08-20T08:41:57.000Z</time>
      </trkpt>
      <trkpt lat="45.45453" lon="6.70652">
        <ele>1300.85</ele>
        <time>2018-08-20T08:42:07.000Z</time>
      </trkpt>
      <trkpt lat="45.45453" lon="6.70655">
        <ele>1302.04</ele>
        <time>2018-08-20T08:42:17.000Z</time>
      </trkpt>
      <trkpt lat="45.45452" lon="6.70658">
        <ele>1303.37</ele>
        <time>2018-08-20T08:42:27.000Z</time>
      </trkpt>
      <trkpt lat="45.45451" lon="6.70667">
        <ele>1305.65</ele>
        <time>2018-08-20T08:42:37.000Z</time>
      </trkpt>
      <trkpt lat="45.45453" lon="6.70676">
        <ele>1308.3</ele>
        <time>2018-08-20T08:42:47.000Z</time>
      </trkpt>
      <trkpt lat="45.45449" lon="6.70696">
        <ele>1305.94</ele>
        <time>2018-08-20T08:42:57.000Z</time>
      </trkpt>
      <trkpt lat="45.45448" lon="6.70709">
        <ele>1303.63</ele>
        <time>2018-08-20T08:43:07.000Z</time>
      </trkpt>
      <trkpt lat="45.45443" lon="6.70717">
        <ele>1306.7</ele>
        <time>2018-08-20T08:43:17.000Z</time>
      </trkpt>
      <trkpt lat="45.45442" lon="6.70722">
        <ele>1310.87</ele>
        <time>2018-08-20T08:43:27.000Z</time>
      </trkpt>
      <trkpt lat="45.45441" lon="6.70729">
        <ele>1315.01</ele>
        <time>2018-08-20T08:43:37.000Z</time>
      </trkpt>
      <trkpt lat="45.45444" lon="6.70736">
        <ele>1319.21</ele>
        <time>2018-08-20T08:43:47.000Z</time>
      </trkpt>
      <trkpt lat="45.45446" lon="6.70749">
        <ele>1317.36</ele>
        <time>2018-08-20T08:43:57.000Z</time>
      </trkpt>
      <trkpt lat="45.45446" lon="6.70763">
        <ele>1315.82</ele>
        <time>2018-08-20T08:44:07.000Z</time>
      </trkpt>
      <trkpt lat="45.45451" lon="6.70776">
        <ele>1313.06</ele>
        <time>2018-08-20T08:44:17.000Z</time>
      </trkpt>
      <trkpt lat="45.45456" lon="6.70791">
        <ele>1312.08</ele>
        <time>2018-08-20T08:44:27.000Z</time>
      </trkpt>
      <trkpt lat="45.45458" lon="6.70803">
        <ele>1313.87</ele>
        <time>2018-08-20T08:44:37.000Z</time>
      </trkpt>
      <trkpt lat="45.45457" lon="6.70815">
        <ele>1315.02</ele>
        <time>2018-08-20T08:44:47.000Z</time>
      </trkpt>
      <trkpt lat="45.45453" lon="6.70822">
        <ele>1314.32</ele>
        <time>2018-08-20T08:44:57.000Z</time>
      </trkpt>
      <trkpt lat="45.45451" lon="6.70823">
        <ele>1315.19</ele>
        <time>2018-08-20T08:45:07.000Z</time>
      </trkpt>
      <trkpt lat="45.45453" lon="6.70824">
        <ele>1315.5</ele>
        <time>2018-08-20T08:45:38.000Z</time>
      </trkpt>
      <trkpt lat="45.45453" lon="6.70827">
        <ele>1317.32</ele>
        <time>2018-08-20T08:45:48.000Z</time>
      </trkpt>
      <trkpt lat="45.45454" lon="6.7082">
        <ele>1318.42</ele>
        <time>2018-08-20T08:45:58.000Z</time>
      </trkpt>
      <trkpt lat="45.4545" lon="6.70809">
        <ele>1317.65</ele>
        <time>2018-08-20T08:46:08.000Z</time>
      </trkpt>
      <trkpt lat="45.45452" lon="6.70799">
        <ele>1321.17</ele>
        <time>2018-08-20T08:46:18.000Z</time>
      </trkpt>
      <trkpt lat="45.45449" lon="6.70791">
        <ele>1323.14</ele>
        <time>2018-08-20T08:46:28.000Z</time>
      </trkpt>
      <trkpt lat="45.45449" lon="6.70782">
        <ele>1323.44</ele>
        <time>2018-08-20T08:46:38.000Z</time>
      </trkpt>
      <trkpt lat="45.45446" lon="6.70772">
        <ele>1324.85</ele>
        <time>2018-08-20T08:46:48.000Z</time>
      </trkpt>
      <trkpt lat="45.45439" lon="6.70765">
        <ele>1322.3</ele>
        <time>2018-08-20T08:46:58.000Z</time>
      </trkpt>
      <trkpt lat="45.45433" lon="6.70764">
        <ele>1323.71</ele>
        <time>2018-08-20T08:47:08.000Z</time>
      </trkpt>
      <trkpt lat="45.45429" lon="6.70753">
        <ele>1326.76</ele>
        <time>2018-08-20T08:47:18.000Z</time>
      </trkpt>
      <trkpt lat="45.45422" lon="6.7074">
        <ele>1331.12</ele>
        <time>2018-08-20T08:47:28.000Z</time>
      </trkpt>
      <trkpt lat="45.45421" lon="6.70734">
        <ele>1331.84</ele>
        <time>2018-08-20T08:47:38.000Z</time>
      </trkpt>
      <trkpt lat="45.45419" lon="6.7072">
        <ele>1335.61</ele>
        <time>2018-08-20T08:47:48.000Z</time>
      </trkpt>
      <trkpt lat="45.45415" lon="6.70714">
        <ele>1336.1</ele>
        <time>2018-08-20T08:47:58.000Z</time>
      </trkpt>
      <trkpt lat="45.4541" lon="6.70708">
        <ele>1336.35</ele>
        <time>2018-08-20T08:48:08.000Z</time>
      </trkpt>
      <trkpt lat="45.45408" lon="6.70696">
        <ele>1337.08</ele>
        <time>2018-08-20T08:48:18.000Z</time>
      </trkpt>
      <trkpt lat="45.45409" lon="6.70693">
        <ele>1337.43</ele>
        <time>2018-08-20T08:48:28.000Z</time>
      </trkpt>
      <trkpt lat="45.45407" lon="6.70693">
        <ele>1337.65</ele>
        <time>2018-08-20T08:48:39.000Z</time>
      </trkpt>
      <trkpt lat="45.45406" lon="6.70692">
        <ele>1338.03</ele>
        <time>2018-08-20T08:48:49.000Z</time>
      </trkpt>
      <trkpt lat="45.45405" lon="6.70688">
        <ele>1338.69</ele>
        <time>2018-08-20T08:48:59.000Z</time>
      </trkpt>
      <trkpt lat="45.45397" lon="6.70679">
        <ele>1341.33</ele>
        <time>2018-08-20T08:49:09.000Z</time>
      </trkpt>
      <trkpt lat="45.45389" lon="6.70674">
        <ele>1342.31</ele>
        <time>2018-08-20T08:49:19.000Z</time>
      </trkpt>
      <trkpt lat="45.45376" lon="6.70661">
        <ele>1343.62</ele>
        <time>2018-08-20T08:49:29.000Z</time>
      </trkpt>
      <trkpt lat="45.45371" lon="6.70654">
        <ele>1345.55</ele>
        <time>2018-08-20T08:49:39.000Z</time>
      </trkpt>
      <trkpt lat="45.45366" lon="6.70651">
        <ele>1348.97</ele>
        <time>2018-08-20T08:49:49.000Z</time>
      </trkpt>
      <trkpt lat="45.45363" lon="6.70644">
        <ele>1350.82</ele>
        <time>2018-08-20T08:49:59.000Z</time>
      </trkpt>
      <trkpt lat="45.45352" lon="6.70632">
        <ele>1354.05</ele>
        <time>2018-08-20T08:50:09.000Z</time>
      </trkpt>
      <trkpt lat="45.45348" lon="6.70623">
        <ele>1354.54</ele>
        <time>2018-08-20T08:50:19.000Z</time>
      </trkpt>
      <trkpt lat="45.45337" lon="6.70606">
        <ele>1358.27</ele>
        <time>2018-08-20T08:50:29.000Z</time>
      </trkpt>
      <trkpt lat="45.45329" lon="6.70602">
        <ele>1364.75</ele>
        <time>2018-08-20T08:50:39.000Z</time>
      </trkpt>
      <trkpt lat="45.45326" lon="6.70603">
        <ele>1366.16</ele>
        <time>2018-08-20T08:50:49.000Z</time>
      </trkpt>
      <trkpt lat="45.45315" lon="6.70599">
        <ele>1367.81</ele>
        <time>2018-08-20T08:50:59.000Z</time>
      </trkpt>
      <trkpt lat="45.45305" lon="6.70595">
        <ele>1369.46</ele>
        <time>2018-08-20T08:51:09.000Z</time>
      </trkpt>
      <trkpt lat="45.45299" lon="6.70592">
        <ele>1370.41</ele>
        <time>2018-08-20T08:51:19.000Z</time>
      </trkpt>
      <trkpt lat="45.45297" lon="6.7059">
        <ele>1371.23</ele>
        <time>2018-08-20T08:51:29.000Z</time>
      </trkpt>
      <trkpt lat="45.45293" lon="6.70582">
        <ele>1371.81</ele>
        <time>2018-08-20T08:51:39.000Z</time>
      </trkpt>
      <trkpt lat="45.4529" lon="6.70568">
        <ele>1374.12</ele>
        <time>2018-08-20T08:51:49.000Z</time>
      </trkpt>
      <trkpt lat="45.45287" lon="6.70561">
        <ele>1376.45</ele>
        <time>2018-08-20T08:51:59.000Z</time>
      </trkpt>
      <trkpt lat="45.45283" lon="6.70557">
        <ele>1377.24</ele>
        <time>2018-08-20T08:52:09.000Z</time>
      </trkpt>
      <trkpt lat="45.45284" lon="6.70553">
        <ele>1377.45</ele>
        <time>2018-08-20T08:52:19.000Z</time>
      </trkpt>
      <trkpt lat="45.45282" lon="6.70551">
        <ele>1377.07</ele>
        <time>2018-08-20T08:52:29.000Z</time>
      </trkpt>
      <trkpt lat="45.45275" lon="6.70549">
        <ele>1377.38</ele>
        <time>2018-08-20T08:52:39.000Z</time>
      </trkpt>
      <trkpt lat="45.45266" lon="6.7054">
        <ele>1378.42</ele>
        <time>2018-08-20T08:52:49.000Z</time>
      </trkpt>
      <trkpt lat="45.45259" lon="6.70537">
        <ele>1377.56</ele>
        <time>2018-08-20T08:52:59.000Z</time>
      </trkpt>
      <trkpt lat="45.45247" lon="6.70537">
        <ele>1377.54</ele>
        <time>2018-08-20T08:53:09.000Z</time>
      </trkpt>
      <trkpt lat="45.45243" lon="6.70531">
        <ele>1377.25</ele>
        <time>2018-08-20T08:53:19.000Z</time>
      </trkpt>
      <trkpt lat="45.45236" lon="6.70524">
        <ele>1377.18</ele>
        <time>2018-08-20T08:53:29.000Z</time>
      </trkpt>
      <trkpt lat="45.45226" lon="6.70515">
        <ele>1378.34</ele>
        <time>2018-08-20T08:53:39.000Z</time>
      </trkpt>
      <trkpt lat="45.4522" lon="6.70507">
        <ele>1381.63</ele>
        <time>2018-08-20T08:53:49.000Z</time>
      </trkpt>
      <trkpt lat="45.45218" lon="6.70505">
        <ele>1383.57</ele>
        <time>2018-08-20T08:53:59.000Z</time>
      </trkpt>
      <trkpt lat="45.45209" lon="6.70499">
        <ele>1386</ele>
        <time>2018-08-20T08:54:09.000Z</time>
      </trkpt>
      <trkpt lat="45.45208" lon="6.70498">
        <ele>1386.12</ele>
        <time>2018-08-20T08:54:19.000Z</time>
      </trkpt>
      <trkpt lat="45.45196" lon="6.7049">
        <ele>1388.33</ele>
        <time>2018-08-20T08:54:29.000Z</time>
      </trkpt>
      <trkpt lat="45.45184" lon="6.70483">
        <ele>1390.55</ele>
        <time>2018-08-20T08:54:39.000Z</time>
      </trkpt>
      <trkpt lat="45.4518" lon="6.70479">
        <ele>1390.5</ele>
        <time>2018-08-20T08:54:49.000Z</time>
      </trkpt>
      <trkpt lat="45.45176" lon="6.70484">
        <ele>1389.43</ele>
        <time>2018-08-20T08:54:59.000Z</time>
      </trkpt>
      <trkpt lat="45.45176" lon="6.70489">
        <ele>1390.94</ele>
        <time>2018-08-20T08:55:09.000Z</time>
      </trkpt>
      <trkpt lat="45.4518" lon="6.70487">
        <ele>1395.12</ele>
        <time>2018-08-20T08:55:19.000Z</time>
      </trkpt>
      <trkpt lat="45.45182" lon="6.70494">
        <ele>1396.16</ele>
        <time>2018-08-20T08:55:29.000Z</time>
      </trkpt>
      <trkpt lat="45.45187" lon="6.70514">
        <ele>1394.84</ele>
        <time>2018-08-20T08:55:39.000Z</time>
      </trkpt>
      <trkpt lat="45.45189" lon="6.7052">
        <ele>1393.96</ele>
        <time>2018-08-20T08:55:49.000Z</time>
      </trkpt>
      <trkpt lat="45.45193" lon="6.70532">
        <ele>1398.36</ele>
        <time>2018-08-20T08:55:59.000Z</time>
      </trkpt>
      <trkpt lat="45.45204" lon="6.7054">
        <ele>1400.27</ele>
        <time>2018-08-20T08:56:09.000Z</time>
      </trkpt>
      <trkpt lat="45.45213" lon="6.70554">
        <ele>1392.62</ele>
        <time>2018-08-20T08:56:19.000Z</time>
      </trkpt>
      <trkpt lat="45.45214" lon="6.70562">
        <ele>1394.65</ele>
        <time>2018-08-20T08:56:29.000Z</time>
      </trkpt>
      <trkpt lat="45.45217" lon="6.70567">
        <ele>1393.47</ele>
        <time>2018-08-20T08:56:39.000Z</time>
      </trkpt>
      <trkpt lat="45.45219" lon="6.70578">
        <ele>1393.3</ele>
        <time>2018-08-20T08:56:49.000Z</time>
      </trkpt>
      <trkpt lat="45.45222" lon="6.70588">
        <ele>1395.87</ele>
        <time>2018-08-20T08:56:59.000Z</time>
      </trkpt>
      <trkpt lat="45.45224" lon="6.70599">
        <ele>1397.86</ele>
        <time>2018-08-20T08:57:09.000Z</time>
      </trkpt>
      <trkpt lat="45.45228" lon="6.70609">
        <ele>1396.52</ele>
        <time>2018-08-20T08:57:19.000Z</time>
      </trkpt>
      <trkpt lat="45.4523" lon="6.70615">
        <ele>1399.05</ele>
        <time>2018-08-20T08:57:29.000Z</time>
      </trkpt>
      <trkpt lat="45.4523" lon="6.70622">
        <ele>1401.92</ele>
        <time>2018-08-20T08:57:39.000Z</time>
      </trkpt>
      <trkpt lat="45.45232" lon="6.7063">
        <ele>1403.79</ele>
        <time>2018-08-20T08:57:49.000Z</time>
      </trkpt>
      <trkpt lat="45.45235" lon="6.70635">
        <ele>1405.26</ele>
        <time>2018-08-20T08:57:59.000Z</time>
      </trkpt>
      <trkpt lat="45.45245" lon="6.70648">
        <ele>1404.19</ele>
        <time>2018-08-20T08:58:09.000Z</time>
      </trkpt>
      <trkpt lat="45.45243" lon="6.70665">
        <ele>1402.14</ele>
        <time>2018-08-20T08:58:19.000Z</time>
      </trkpt>
      <trkpt lat="45.45244" lon="6.70669">
        <ele>1402.87</ele>
        <time>2018-08-20T08:58:29.000Z</time>
      </trkpt>
      <trkpt lat="45.45241" lon="6.70675">
        <ele>1403.28</ele>
        <time>2018-08-20T08:58:39.000Z</time>
      </trkpt>
      <trkpt lat="45.45245" lon="6.70693">
        <ele>1408.33</ele>
        <time>2018-08-20T08:58:49.000Z</time>
      </trkpt>
      <trkpt lat="45.45248" lon="6.70704">
        <ele>1415.93</ele>
        <time>2018-08-20T08:58:59.000Z</time>
      </trkpt>
      <trkpt lat="45.45259" lon="6.70714">
        <ele>1414.35</ele>
        <time>2018-08-20T08:59:09.000Z</time>
      </trkpt>
      <trkpt lat="45.45261" lon="6.70721">
        <ele>1415.84</ele>
        <time>2018-08-20T08:59:19.000Z</time>
      </trkpt>
      <trkpt lat="45.45261" lon="6.70726">
        <ele>1420.96</ele>
        <time>2018-08-20T08:59:29.000Z</time>
      </trkpt>
      <trkpt lat="45.45267" lon="6.70729">
        <ele>1426</ele>
        <time>2018-08-20T08:59:39.000Z</time>
      </trkpt>
      <trkpt lat="45.45267" lon="6.70731">
        <ele>1427.2</ele>
        <time>2018-08-20T08:59:49.000Z</time>
      </trkpt>
      <trkpt lat="45.45265" lon="6.70735">
        <ele>1428.59</ele>
        <time>2018-08-20T08:59:59.000Z</time>
      </trkpt>
      <trkpt lat="45.45266" lon="6.70756">
        <ele>1429.26</ele>
        <time>2018-08-20T09:00:09.000Z</time>
      </trkpt>
      <trkpt lat="45.45267" lon="6.70759">
        <ele>1429.33</ele>
        <time>2018-08-20T09:00:23.000Z</time>
      </trkpt>
      <trkpt lat="45.45267" lon="6.7077">
        <ele>1429.62</ele>
        <time>2018-08-20T09:00:33.000Z</time>
      </trkpt>
      <trkpt lat="45.45268" lon="6.70781">
        <ele>1429.54</ele>
        <time>2018-08-20T09:00:43.000Z</time>
      </trkpt>
      <trkpt lat="45.45268" lon="6.70792">
        <ele>1432.77</ele>
        <time>2018-08-20T09:00:53.000Z</time>
      </trkpt>
      <trkpt lat="45.45266" lon="6.70799">
        <ele>1432.53</ele>
        <time>2018-08-20T09:01:03.000Z</time>
      </trkpt>
      <trkpt lat="45.45265" lon="6.70815">
        <ele>1434.86</ele>
        <time>2018-08-20T09:01:13.000Z</time>
      </trkpt>
      <trkpt lat="45.45266" lon="6.70828">
        <ele>1437.66</ele>
        <time>2018-08-20T09:01:23.000Z</time>
      </trkpt>
      <trkpt lat="45.45266" lon="6.7083">
        <ele>1437.79</ele>
        <time>2018-08-20T09:01:47.000Z</time>
      </trkpt>
      <trkpt lat="45.45271" lon="6.70846">
        <ele>1440.43</ele>
        <time>2018-08-20T09:01:57.000Z</time>
      </trkpt>
      <trkpt lat="45.45268" lon="6.70872">
        <ele>1443.29</ele>
        <time>2018-08-20T09:02:07.000Z</time>
      </trkpt>
      <trkpt lat="45.45271" lon="6.70879">
        <ele>1444.92</ele>
        <time>2018-08-20T09:02:17.000Z</time>
      </trkpt>
      <trkpt lat="45.45273" lon="6.7089">
        <ele>1447.56</ele>
        <time>2018-08-20T09:02:27.000Z</time>
      </trkpt>
      <trkpt lat="45.45276" lon="6.70895">
        <ele>1449.55</ele>
        <time>2018-08-20T09:02:37.000Z</time>
      </trkpt>
      <trkpt lat="45.45281" lon="6.7091">
        <ele>1450.75</ele>
        <time>2018-08-20T09:02:47.000Z</time>
      </trkpt>
      <trkpt lat="45.45272" lon="6.70927">
        <ele>1452.01</ele>
        <time>2018-08-20T09:02:57.000Z</time>
      </trkpt>
      <trkpt lat="45.4526" lon="6.70935">
        <ele>1453.66</ele>
        <time>2018-08-20T09:03:07.000Z</time>
      </trkpt>
      <trkpt lat="45.45259" lon="6.70934">
        <ele>1453.76</ele>
        <time>2018-08-20T09:03:17.000Z</time>
      </trkpt>
      <trkpt lat="45.45252" lon="6.70938">
        <ele>1451.59</ele>
        <time>2018-08-20T09:03:27.000Z</time>
      </trkpt>
      <trkpt lat="45.45266" lon="6.70923">
        <ele>1451.69</ele>
        <time>2018-08-20T09:03:37.000Z</time>
      </trkpt>
      <trkpt lat="45.45266" lon="6.7092">
        <ele>1452.52</ele>
        <time>2018-08-20T09:03:53.000Z</time>
      </trkpt>
      <trkpt lat="45.45263" lon="6.70894">
        <ele>1460.85</ele>
        <time>2018-08-20T09:04:03.000Z</time>
      </trkpt>
      <trkpt lat="45.45257" lon="6.7088">
        <ele>1463.93</ele>
        <time>2018-08-20T09:04:13.000Z</time>
      </trkpt>
      <trkpt lat="45.45246" lon="6.7087">
        <ele>1463.95</ele>
        <time>2018-08-20T09:04:23.000Z</time>
      </trkpt>
      <trkpt lat="45.45236" lon="6.70868">
        <ele>1462.04</ele>
        <time>2018-08-20T09:04:33.000Z</time>
      </trkpt>
      <trkpt lat="45.45225" lon="6.70863">
        <ele>1461.47</ele>
        <time>2018-08-20T09:04:43.000Z</time>
      </trkpt>
      <trkpt lat="45.45238" lon="6.70846">
        <ele>1464.21</ele>
        <time>2018-08-20T09:04:53.000Z</time>
      </trkpt>
      <trkpt lat="45.45233" lon="6.70836">
        <ele>1468.82</ele>
        <time>2018-08-20T09:05:03.000Z</time>
      </trkpt>
      <trkpt lat="45.45228" lon="6.70828">
        <ele>1469.27</ele>
        <time>2018-08-20T09:05:13.000Z</time>
      </trkpt>
      <trkpt lat="45.45224" lon="6.70818">
        <ele>1470.43</ele>
        <time>2018-08-20T09:05:23.000Z</time>
      </trkpt>
      <trkpt lat="45.45214" lon="6.70816">
        <ele>1472.66</ele>
        <time>2018-08-20T09:05:33.000Z</time>
      </trkpt>
      <trkpt lat="45.45228" lon="6.70815">
        <ele>1469.01</ele>
        <time>2018-08-20T09:05:43.000Z</time>
      </trkpt>
      <trkpt lat="45.45225" lon="6.70818">
        <ele>1468.78</ele>
        <time>2018-08-20T09:05:53.000Z</time>
      </trkpt>
      <trkpt lat="45.45234" lon="6.70829">
        <ele>1467.9</ele>
        <time>2018-08-20T09:06:03.000Z</time>
      </trkpt>
      <trkpt lat="45.45245" lon="6.70817">
        <ele>1466.83</ele>
        <time>2018-08-20T09:06:13.000Z</time>
      </trkpt>
      <trkpt lat="45.45243" lon="6.70818">
        <ele>1466.73</ele>
        <time>2018-08-20T09:06:24.000Z</time>
      </trkpt>
      <trkpt lat="45.45219" lon="6.70793">
        <ele>1490.57</ele>
        <time>2018-08-20T09:10:46.000Z</time>
      </trkpt>
      <trkpt lat="45.45219" lon="6.70787">
        <ele>1485.27</ele>
        <time>2018-08-20T09:10:56.000Z</time>
      </trkpt>
      <trkpt lat="45.45217" lon="6.70786">
        <ele>1490.55</ele>
        <time>2018-08-20T09:11:06.000Z</time>
      </trkpt>
      <trkpt lat="45.45214" lon="6.70782">
        <ele>1490</ele>
        <time>2018-08-20T09:11:16.000Z</time>
      </trkpt>
      <trkpt lat="45.45205" lon="6.70781">
        <ele>1490.49</ele>
        <time>2018-08-20T09:11:26.000Z</time>
      </trkpt>
      <trkpt lat="45.45196" lon="6.70773">
        <ele>1488.98</ele>
        <time>2018-08-20T09:11:36.000Z</time>
      </trkpt>
      <trkpt lat="45.45195" lon="6.70772">
        <ele>1488.7</ele>
        <time>2018-08-20T09:11:46.000Z</time>
      </trkpt>
      <trkpt lat="45.45195" lon="6.70769">
        <ele>1491.46</ele>
        <time>2018-08-20T09:11:56.000Z</time>
      </trkpt>
      <trkpt lat="45.45194" lon="6.70769">
        <ele>1491.66</ele>
        <time>2018-08-20T09:12:14.000Z</time>
      </trkpt>
      <trkpt lat="45.45189" lon="6.70764">
        <ele>1492.64</ele>
        <time>2018-08-20T09:12:24.000Z</time>
      </trkpt>
      <trkpt lat="45.45183" lon="6.70754">
        <ele>1489.3</ele>
        <time>2018-08-20T09:12:34.000Z</time>
      </trkpt>
      <trkpt lat="45.45174" lon="6.70743">
        <ele>1483.22</ele>
        <time>2018-08-20T09:12:44.000Z</time>
      </trkpt>
      <trkpt lat="45.45167" lon="6.70731">
        <ele>1482.7</ele>
        <time>2018-08-20T09:12:54.000Z</time>
      </trkpt>
      <trkpt lat="45.45169" lon="6.70719">
        <ele>1487.68</ele>
        <time>2018-08-20T09:13:04.000Z</time>
      </trkpt>
      <trkpt lat="45.45168" lon="6.70705">
        <ele>1491.19</ele>
        <time>2018-08-20T09:13:14.000Z</time>
      </trkpt>
      <trkpt lat="45.45161" lon="6.70693">
        <ele>1493.68</ele>
        <time>2018-08-20T09:13:24.000Z</time>
      </trkpt>
      <trkpt lat="45.45161" lon="6.70689">
        <ele>1499.1</ele>
        <time>2018-08-20T09:13:34.000Z</time>
      </trkpt>
      <trkpt lat="45.45153" lon="6.70685">
        <ele>1498.99</ele>
        <time>2018-08-20T09:13:44.000Z</time>
      </trkpt>
      <trkpt lat="45.45142" lon="6.7068">
        <ele>1491.96</ele>
        <time>2018-08-20T09:13:54.000Z</time>
      </trkpt>
      <trkpt lat="45.45127" lon="6.70677">
        <ele>1487.62</ele>
        <time>2018-08-20T09:14:04.000Z</time>
      </trkpt>
      <trkpt lat="45.45115" lon="6.70678">
        <ele>1485.09</ele>
        <time>2018-08-20T09:14:14.000Z</time>
      </trkpt>
      <trkpt lat="45.45107" lon="6.70684">
        <ele>1482.65</ele>
        <time>2018-08-20T09:14:24.000Z</time>
      </trkpt>
      <trkpt lat="45.45104" lon="6.70685">
        <ele>1481.39</ele>
        <time>2018-08-20T09:14:34.000Z</time>
      </trkpt>
      <trkpt lat="45.45099" lon="6.70684">
        <ele>1480.82</ele>
        <time>2018-08-20T09:14:44.000Z</time>
      </trkpt>
      <trkpt lat="45.45092" lon="6.70687">
        <ele>1482.74</ele>
        <time>2018-08-20T09:14:54.000Z</time>
      </trkpt>
      <trkpt lat="45.45084" lon="6.70678">
        <ele>1483.21</ele>
        <time>2018-08-20T09:15:04.000Z</time>
      </trkpt>
      <trkpt lat="45.45075" lon="6.70668">
        <ele>1488.99</ele>
        <time>2018-08-20T09:15:14.000Z</time>
      </trkpt>
      <trkpt lat="45.45065" lon="6.70664">
        <ele>1491.01</ele>
        <time>2018-08-20T09:15:24.000Z</time>
      </trkpt>
      <trkpt lat="45.45056" lon="6.70654">
        <ele>1493.11</ele>
        <time>2018-08-20T09:15:34.000Z</time>
      </trkpt>
      <trkpt lat="45.45051" lon="6.70646">
        <ele>1493.25</ele>
        <time>2018-08-20T09:15:44.000Z</time>
      </trkpt>
      <trkpt lat="45.45051" lon="6.70638">
        <ele>1493.81</ele>
        <time>2018-08-20T09:15:54.000Z</time>
      </trkpt>
      <trkpt lat="45.45054" lon="6.70639">
        <ele>1493.65</ele>
        <time>2018-08-20T09:17:27.000Z</time>
      </trkpt>
      <trkpt lat="45.45048" lon="6.70644">
        <ele>1492.86</ele>
        <time>2018-08-20T09:17:37.000Z</time>
      </trkpt>
      <trkpt lat="45.45034" lon="6.70644">
        <ele>1489.13</ele>
        <time>2018-08-20T09:17:47.000Z</time>
      </trkpt>
      <trkpt lat="45.45036" lon="6.70641">
        <ele>1488.41</ele>
        <time>2018-08-20T09:17:57.000Z</time>
      </trkpt>
      <trkpt lat="45.4504" lon="6.70647">
        <ele>1487.58</ele>
        <time>2018-08-20T09:18:07.000Z</time>
      </trkpt>
      <trkpt lat="45.45042" lon="6.70657">
        <ele>1488.3</ele>
        <time>2018-08-20T09:18:17.000Z</time>
      </trkpt>
      <trkpt lat="45.45041" lon="6.70657">
        <ele>1488.13</ele>
        <time>2018-08-20T09:18:44.000Z</time>
      </trkpt>
      <trkpt lat="45.45042" lon="6.70657">
        <ele>1486.28</ele>
        <time>2018-08-20T09:18:54.000Z</time>
      </trkpt>
      <trkpt lat="45.45043" lon="6.70655">
        <ele>1486.55</ele>
        <time>2018-08-20T09:19:55.000Z</time>
      </trkpt>
      <trkpt lat="45.45042" lon="6.70654">
        <ele>1486.91</ele>
        <time>2018-08-20T09:20:50.000Z</time>
      </trkpt>
      <trkpt lat="45.45042" lon="6.70647">
        <ele>1489.05</ele>
        <time>2018-08-20T09:21:00.000Z</time>
      </trkpt>
      <trkpt lat="45.45042" lon="6.70646">
        <ele>1490.1</ele>
        <time>2018-08-20T09:21:55.000Z</time>
      </trkpt>
      <trkpt lat="45.45041" lon="6.70646">
        <ele>1490.3</ele>
        <time>2018-08-20T09:23:14.000Z</time>
      </trkpt>
      <trkpt lat="45.4504" lon="6.70646">
        <ele>1491.31</ele>
        <time>2018-08-20T09:23:24.000Z</time>
      </trkpt>
      <trkpt lat="45.4504" lon="6.70647">
        <ele>1491.61</ele>
        <time>2018-08-20T09:23:47.000Z</time>
      </trkpt>
      <trkpt lat="45.45039" lon="6.70648">
        <ele>1492.55</ele>
        <time>2018-08-20T09:23:57.000Z</time>
      </trkpt>
      <trkpt lat="45.45054" lon="6.70661">
        <ele>1493.07</ele>
        <time>2018-08-20T09:24:07.000Z</time>
      </trkpt>
      <trkpt lat="45.45056" lon="6.70668">
        <ele>1493.42</ele>
        <time>2018-08-20T09:24:17.000Z</time>
      </trkpt>
      <trkpt lat="45.45061" lon="6.70675">
        <ele>1492.94</ele>
        <time>2018-08-20T09:24:27.000Z</time>
      </trkpt>
      <trkpt lat="45.45062" lon="6.70676">
        <ele>1493.26</ele>
        <time>2018-08-20T09:24:37.000Z</time>
      </trkpt>
      <trkpt lat="45.4507" lon="6.70687">
        <ele>1489.86</ele>
        <time>2018-08-20T09:24:47.000Z</time>
      </trkpt>
      <trkpt lat="45.45076" lon="6.70697">
        <ele>1488.66</ele>
        <time>2018-08-20T09:24:57.000Z</time>
      </trkpt>
      <trkpt lat="45.45082" lon="6.70703">
        <ele>1493.44</ele>
        <time>2018-08-20T09:25:07.000Z</time>
      </trkpt>
      <trkpt lat="45.45085" lon="6.70711">
        <ele>1498.23</ele>
        <time>2018-08-20T09:25:17.000Z</time>
      </trkpt>
      <trkpt lat="45.45087" lon="6.70711">
        <ele>1500.03</ele>
        <time>2018-08-20T09:25:27.000Z</time>
      </trkpt>
      <trkpt lat="45.45088" lon="6.70712">
        <ele>1500.9</ele>
        <time>2018-08-20T09:25:44.000Z</time>
      </trkpt>
      <trkpt lat="45.45092" lon="6.70714">
        <ele>1503.8</ele>
        <time>2018-08-20T09:25:54.000Z</time>
      </trkpt>
      <trkpt lat="45.45093" lon="6.70715">
        <ele>1505.34</ele>
        <time>2018-08-20T09:26:12.000Z</time>
      </trkpt>
      <trkpt lat="45.45093" lon="6.70718">
        <ele>1506.44</ele>
        <time>2018-08-20T09:26:31.000Z</time>
      </trkpt>
      <trkpt lat="45.45093" lon="6.70722">
        <ele>1508.26</ele>
        <time>2018-08-20T09:26:41.000Z</time>
      </trkpt>
      <trkpt lat="45.45091" lon="6.70728">
        <ele>1508.2</ele>
        <time>2018-08-20T09:26:51.000Z</time>
      </trkpt>
      <trkpt lat="45.45088" lon="6.70741">
        <ele>1510.24</ele>
        <time>2018-08-20T09:27:01.000Z</time>
      </trkpt>
      <trkpt lat="45.45087" lon="6.70755">
        <ele>1512.5</ele>
        <time>2018-08-20T09:27:11.000Z</time>
      </trkpt>
      <trkpt lat="45.45088" lon="6.70758">
        <ele>1512.76</ele>
        <time>2018-08-20T09:27:59.000Z</time>
      </trkpt>
      <trkpt lat="45.4509" lon="6.70773">
        <ele>1513.83</ele>
        <time>2018-08-20T09:28:09.000Z</time>
      </trkpt>
      <trkpt lat="45.4509" lon="6.70777">
        <ele>1514.38</ele>
        <time>2018-08-20T09:28:19.000Z</time>
      </trkpt>
      <trkpt lat="45.45089" lon="6.70802">
        <ele>1517.29</ele>
        <time>2018-08-20T09:28:29.000Z</time>
      </trkpt>
      <trkpt lat="45.45088" lon="6.70806">
        <ele>1517.64</ele>
        <time>2018-08-20T09:28:39.000Z</time>
      </trkpt>
      <trkpt lat="45.45089" lon="6.70809">
        <ele>1517.47</ele>
        <time>2018-08-20T09:28:58.000Z</time>
      </trkpt>
      <trkpt lat="45.45089" lon="6.70814">
        <ele>1516.69</ele>
        <time>2018-08-20T09:29:08.000Z</time>
      </trkpt>
      <trkpt lat="45.4509" lon="6.70818">
        <ele>1517.09</ele>
        <time>2018-08-20T09:29:18.000Z</time>
      </trkpt>
      <trkpt lat="45.45092" lon="6.70823">
        <ele>1517.59</ele>
        <time>2018-08-20T09:29:28.000Z</time>
      </trkpt>
      <trkpt lat="45.45096" lon="6.70854">
        <ele>1518.68</ele>
        <time>2018-08-20T09:29:38.000Z</time>
      </trkpt>
      <trkpt lat="45.45099" lon="6.70875">
        <ele>1521.69</ele>
        <time>2018-08-20T09:29:48.000Z</time>
      </trkpt>
      <trkpt lat="45.45099" lon="6.70889">
        <ele>1524.53</ele>
        <time>2018-08-20T09:29:58.000Z</time>
      </trkpt>
      <trkpt lat="45.45095" lon="6.70905">
        <ele>1525.95</ele>
        <time>2018-08-20T09:30:08.000Z</time>
      </trkpt>
      <trkpt lat="45.451" lon="6.70922">
        <ele>1530.72</ele>
        <time>2018-08-20T09:30:18.000Z</time>
      </trkpt>
      <trkpt lat="45.45104" lon="6.70928">
        <ele>1532.11</ele>
        <time>2018-08-20T09:30:28.000Z</time>
      </trkpt>
      <trkpt lat="45.45104" lon="6.70939">
        <ele>1532.12</ele>
        <time>2018-08-20T09:30:38.000Z</time>
      </trkpt>
      <trkpt lat="45.451" lon="6.70953">
        <ele>1533.55</ele>
        <time>2018-08-20T09:30:48.000Z</time>
      </trkpt>
      <trkpt lat="45.45101" lon="6.70959">
        <ele>1534.83</ele>
        <time>2018-08-20T09:30:58.000Z</time>
      </trkpt>
      <trkpt lat="45.45098" lon="6.70974">
        <ele>1536.17</ele>
        <time>2018-08-20T09:31:08.000Z</time>
      </trkpt>
      <trkpt lat="45.45101" lon="6.70993">
        <ele>1536.78</ele>
        <time>2018-08-20T09:31:18.000Z</time>
      </trkpt>
      <trkpt lat="45.4511" lon="6.71005">
        <ele>1536.83</ele>
        <time>2018-08-20T09:31:28.000Z</time>
      </trkpt>
      <trkpt lat="45.45118" lon="6.71026">
        <ele>1534.38</ele>
        <time>2018-08-20T09:31:38.000Z</time>
      </trkpt>
      <trkpt lat="45.45122" lon="6.71047">
        <ele>1530.03</ele>
        <time>2018-08-20T09:31:48.000Z</time>
      </trkpt>
      <trkpt lat="45.45128" lon="6.71054">
        <ele>1534.52</ele>
        <time>2018-08-20T09:31:58.000Z</time>
      </trkpt>
      <trkpt lat="45.45131" lon="6.71061">
        <ele>1536.05</ele>
        <time>2018-08-20T09:32:08.000Z</time>
      </trkpt>
      <trkpt lat="45.45139" lon="6.71069">
        <ele>1538.67</ele>
        <time>2018-08-20T09:32:18.000Z</time>
      </trkpt>
      <trkpt lat="45.45142" lon="6.71081">
        <ele>1542.42</ele>
        <time>2018-08-20T09:32:28.000Z</time>
      </trkpt>
      <trkpt lat="45.45146" lon="6.71092">
        <ele>1540.09</ele>
        <time>2018-08-20T09:32:38.000Z</time>
      </trkpt>
      <trkpt lat="45.45146" lon="6.71097">
        <ele>1539.51</ele>
        <time>2018-08-20T09:32:48.000Z</time>
      </trkpt>
      <trkpt lat="45.45146" lon="6.71102">
        <ele>1539.16</ele>
        <time>2018-08-20T09:32:58.000Z</time>
      </trkpt>
      <trkpt lat="45.45148" lon="6.7111">
        <ele>1539.47</ele>
        <time>2018-08-20T09:33:08.000Z</time>
      </trkpt>
      <trkpt lat="45.45148" lon="6.71113">
        <ele>1540.21</ele>
        <time>2018-08-20T09:33:18.000Z</time>
      </trkpt>
      <trkpt lat="45.45153" lon="6.71137">
        <ele>1538.79</ele>
        <time>2018-08-20T09:33:28.000Z</time>
      </trkpt>
      <trkpt lat="45.45153" lon="6.71162">
        <ele>1543.58</ele>
        <time>2018-08-20T09:33:38.000Z</time>
      </trkpt>
      <trkpt lat="45.45159" lon="6.71176">
        <ele>1542.33</ele>
        <time>2018-08-20T09:33:48.000Z</time>
      </trkpt>
      <trkpt lat="45.45158" lon="6.71184">
        <ele>1542.57</ele>
        <time>2018-08-20T09:33:58.000Z</time>
      </trkpt>
      <trkpt lat="45.45149" lon="6.71196">
        <ele>1546.1</ele>
        <time>2018-08-20T09:34:08.000Z</time>
      </trkpt>
      <trkpt lat="45.45151" lon="6.71206">
        <ele>1546.47</ele>
        <time>2018-08-20T09:34:18.000Z</time>
      </trkpt>
      <trkpt lat="45.4515" lon="6.71214">
        <ele>1550.4</ele>
        <time>2018-08-20T09:34:28.000Z</time>
      </trkpt>
      <trkpt lat="45.45149" lon="6.71215">
        <ele>1550.88</ele>
        <time>2018-08-20T09:34:39.000Z</time>
      </trkpt>
      <trkpt lat="45.45147" lon="6.71228">
        <ele>1550.72</ele>
        <time>2018-08-20T09:34:49.000Z</time>
      </trkpt>
      <trkpt lat="45.45144" lon="6.71241">
        <ele>1554</ele>
        <time>2018-08-20T09:34:59.000Z</time>
      </trkpt>
      <trkpt lat="45.45138" lon="6.71257">
        <ele>1554.17</ele>
        <time>2018-08-20T09:35:09.000Z</time>
      </trkpt>
      <trkpt lat="45.45143" lon="6.71281">
        <ele>1555.95</ele>
        <time>2018-08-20T09:35:19.000Z</time>
      </trkpt>
      <trkpt lat="45.45144" lon="6.71295">
        <ele>1553.7</ele>
        <time>2018-08-20T09:35:29.000Z</time>
      </trkpt>
      <trkpt lat="45.45145" lon="6.71308">
        <ele>1549.28</ele>
        <time>2018-08-20T09:35:39.000Z</time>
      </trkpt>
      <trkpt lat="45.45151" lon="6.71315">
        <ele>1546.31</ele>
        <time>2018-08-20T09:35:49.000Z</time>
      </trkpt>
      <trkpt lat="45.45159" lon="6.71325">
        <ele>1547.15</ele>
        <time>2018-08-20T09:35:59.000Z</time>
      </trkpt>
      <trkpt lat="45.4516" lon="6.71325">
        <ele>1547.4</ele>
        <time>2018-08-20T09:36:12.000Z</time>
      </trkpt>
      <trkpt lat="45.45165" lon="6.71319">
        <ele>1546.61</ele>
        <time>2018-08-20T09:36:22.000Z</time>
      </trkpt>
      <trkpt lat="45.45167" lon="6.7132">
        <ele>1546.42</ele>
        <time>2018-08-20T09:36:38.000Z</time>
      </trkpt>
      <trkpt lat="45.45179" lon="6.71329">
        <ele>1544.78</ele>
        <time>2018-08-20T09:36:48.000Z</time>
      </trkpt>
      <trkpt lat="45.45198" lon="6.71329">
        <ele>1544.51</ele>
        <time>2018-08-20T09:36:58.000Z</time>
      </trkpt>
      <trkpt lat="45.45208" lon="6.71332">
        <ele>1545.05</ele>
        <time>2018-08-20T09:37:08.000Z</time>
      </trkpt>
      <trkpt lat="45.45217" lon="6.71326">
        <ele>1547.29</ele>
        <time>2018-08-20T09:37:18.000Z</time>
      </trkpt>
      <trkpt lat="45.45221" lon="6.71319">
        <ele>1548.33</ele>
        <time>2018-08-20T09:37:28.000Z</time>
      </trkpt>
      <trkpt lat="45.45224" lon="6.71319">
        <ele>1552.13</ele>
        <time>2018-08-20T09:37:38.000Z</time>
      </trkpt>
      <trkpt lat="45.45229" lon="6.71325">
        <ele>1552.67</ele>
        <time>2018-08-20T09:37:48.000Z</time>
      </trkpt>
      <trkpt lat="45.45234" lon="6.71326">
        <ele>1555.13</ele>
        <time>2018-08-20T09:37:58.000Z</time>
      </trkpt>
      <trkpt lat="45.45237" lon="6.71328">
        <ele>1557.29</ele>
        <time>2018-08-20T09:38:08.000Z</time>
      </trkpt>
      <trkpt lat="45.45243" lon="6.71337">
        <ele>1560.12</ele>
        <time>2018-08-20T09:38:18.000Z</time>
      </trkpt>
      <trkpt lat="45.45248" lon="6.71347">
        <ele>1559.65</ele>
        <time>2018-08-20T09:38:28.000Z</time>
      </trkpt>
      <trkpt lat="45.45249" lon="6.71361">
        <ele>1560.82</ele>
        <time>2018-08-20T09:38:38.000Z</time>
      </trkpt>
      <trkpt lat="45.4525" lon="6.71362">
        <ele>1561.14</ele>
        <time>2018-08-20T09:38:49.000Z</time>
      </trkpt>
      <trkpt lat="45.45254" lon="6.71365">
        <ele>1562.67</ele>
        <time>2018-08-20T09:38:59.000Z</time>
      </trkpt>
      <trkpt lat="45.45256" lon="6.71367">
        <ele>1563.05</ele>
        <time>2018-08-20T09:39:09.000Z</time>
      </trkpt>
      <trkpt lat="45.45257" lon="6.71369">
        <ele>1564.42</ele>
        <time>2018-08-20T09:39:19.000Z</time>
      </trkpt>
      <trkpt lat="45.45268" lon="6.71382">
        <ele>1564.21</ele>
        <time>2018-08-20T09:39:29.000Z</time>
      </trkpt>
      <trkpt lat="45.45278" lon="6.71399">
        <ele>1561.2</ele>
        <time>2018-08-20T09:39:39.000Z</time>
      </trkpt>
      <trkpt lat="45.45286" lon="6.71407">
        <ele>1562.09</ele>
        <time>2018-08-20T09:39:49.000Z</time>
      </trkpt>
      <trkpt lat="45.453" lon="6.71415">
        <ele>1567</ele>
        <time>2018-08-20T09:39:59.000Z</time>
      </trkpt>
      <trkpt lat="45.45311" lon="6.71426">
        <ele>1570</ele>
        <time>2018-08-20T09:40:09.000Z</time>
      </trkpt>
      <trkpt lat="45.45314" lon="6.71436">
        <ele>1573.02</ele>
        <time>2018-08-20T09:40:19.000Z</time>
      </trkpt>
      <trkpt lat="45.45317" lon="6.71436">
        <ele>1574.09</ele>
        <time>2018-08-20T09:40:29.000Z</time>
      </trkpt>
      <trkpt lat="45.45313" lon="6.71431">
        <ele>1573.63</ele>
        <time>2018-08-20T09:40:39.000Z</time>
      </trkpt>
      <trkpt lat="45.4531" lon="6.71424">
        <ele>1570.83</ele>
        <time>2018-08-20T09:40:49.000Z</time>
      </trkpt>
      <trkpt lat="45.45309" lon="6.71423">
        <ele>1570.41</ele>
        <time>2018-08-20T09:41:04.000Z</time>
      </trkpt>
      <trkpt lat="45.45307" lon="6.71422">
        <ele>1570.69</ele>
        <time>2018-08-20T09:41:14.000Z</time>
      </trkpt>
      <trkpt lat="45.45303" lon="6.71413">
        <ele>1572.88</ele>
        <time>2018-08-20T09:41:24.000Z</time>
      </trkpt>
      <trkpt lat="45.45292" lon="6.71412">
        <ele>1573.7</ele>
        <time>2018-08-20T09:41:34.000Z</time>
      </trkpt>
      <trkpt lat="45.45291" lon="6.71411">
        <ele>1573.67</ele>
        <time>2018-08-20T09:41:44.000Z</time>
      </trkpt>
      <trkpt lat="45.45281" lon="6.71406">
        <ele>1572.75</ele>
        <time>2018-08-20T09:41:54.000Z</time>
      </trkpt>
      <trkpt lat="45.45278" lon="6.71404">
        <ele>1572.77</ele>
        <time>2018-08-20T09:42:04.000Z</time>
      </trkpt>
      <trkpt lat="45.45275" lon="6.71402">
        <ele>1573.49</ele>
        <time>2018-08-20T09:42:20.000Z</time>
      </trkpt>
      <trkpt lat="45.45257" lon="6.71391">
        <ele>1579.88</ele>
        <time>2018-08-20T09:42:30.000Z</time>
      </trkpt>
      <trkpt lat="45.45254" lon="6.7139">
        <ele>1582.36</ele>
        <time>2018-08-20T09:42:40.000Z</time>
      </trkpt>
      <trkpt lat="45.45247" lon="6.71387">
        <ele>1582.36</ele>
        <time>2018-08-20T09:42:50.000Z</time>
      </trkpt>
      <trkpt lat="45.45229" lon="6.71382">
        <ele>1582.88</ele>
        <time>2018-08-20T09:43:00.000Z</time>
      </trkpt>
      <trkpt lat="45.45227" lon="6.71382">
        <ele>1583.17</ele>
        <time>2018-08-20T09:43:13.000Z</time>
      </trkpt>
      <trkpt lat="45.45222" lon="6.71383">
        <ele>1583.97</ele>
        <time>2018-08-20T09:43:23.000Z</time>
      </trkpt>
      <trkpt lat="45.45218" lon="6.71383">
        <ele>1584.31</ele>
        <time>2018-08-20T09:43:33.000Z</time>
      </trkpt>
      <trkpt lat="45.45214" lon="6.71381">
        <ele>1584.26</ele>
        <time>2018-08-20T09:43:43.000Z</time>
      </trkpt>
      <trkpt lat="45.45211" lon="6.71384">
        <ele>1584.46</ele>
        <time>2018-08-20T09:44:19.000Z</time>
      </trkpt>
      <trkpt lat="45.45187" lon="6.71396">
        <ele>1584.71</ele>
        <time>2018-08-20T09:44:29.000Z</time>
      </trkpt>
      <trkpt lat="45.45172" lon="6.71403">
        <ele>1585.58</ele>
        <time>2018-08-20T09:44:39.000Z</time>
      </trkpt>
      <trkpt lat="45.4517" lon="6.71404">
        <ele>1586.41</ele>
        <time>2018-08-20T09:44:49.000Z</time>
      </trkpt>
      <trkpt lat="45.45164" lon="6.71406">
        <ele>1587.17</ele>
        <time>2018-08-20T09:44:59.000Z</time>
      </trkpt>
      <trkpt lat="45.45161" lon="6.71409">
        <ele>1587.8</ele>
        <time>2018-08-20T09:45:09.000Z</time>
      </trkpt>
      <trkpt lat="45.45159" lon="6.71414">
        <ele>1589.25</ele>
        <time>2018-08-20T09:45:19.000Z</time>
      </trkpt>
      <trkpt lat="45.45156" lon="6.71422">
        <ele>1588.19</ele>
        <time>2018-08-20T09:45:29.000Z</time>
      </trkpt>
      <trkpt lat="45.45155" lon="6.71422">
        <ele>1588.8</ele>
        <time>2018-08-20T09:45:39.000Z</time>
      </trkpt>
      <trkpt lat="45.45152" lon="6.71424">
        <ele>1591.07</ele>
        <time>2018-08-20T09:45:49.000Z</time>
      </trkpt>
      <trkpt lat="45.45149" lon="6.71426">
        <ele>1592.26</ele>
        <time>2018-08-20T09:45:59.000Z</time>
      </trkpt>
      <trkpt lat="45.45136" lon="6.71438">
        <ele>1595.55</ele>
        <time>2018-08-20T09:46:09.000Z</time>
      </trkpt>
      <trkpt lat="45.45134" lon="6.71441">
        <ele>1597.62</ele>
        <time>2018-08-20T09:46:19.000Z</time>
      </trkpt>
      <trkpt lat="45.45122" lon="6.71447">
        <ele>1600.57</ele>
        <time>2018-08-20T09:46:29.000Z</time>
      </trkpt>
      <trkpt lat="45.45115" lon="6.71449">
        <ele>1602.48</ele>
        <time>2018-08-20T09:46:39.000Z</time>
      </trkpt>
      <trkpt lat="45.45113" lon="6.71454">
        <ele>1604.16</ele>
        <time>2018-08-20T09:46:49.000Z</time>
      </trkpt>
      <trkpt lat="45.45112" lon="6.71456">
        <ele>1604.41</ele>
        <time>2018-08-20T09:47:44.000Z</time>
      </trkpt>
      <trkpt lat="45.45105" lon="6.71462">
        <ele>1606.71</ele>
        <time>2018-08-20T09:47:54.000Z</time>
      </trkpt>
      <trkpt lat="45.45097" lon="6.7146">
        <ele>1608.89</ele>
        <time>2018-08-20T09:48:04.000Z</time>
      </trkpt>
      <trkpt lat="45.4509" lon="6.7146">
        <ele>1610.5</ele>
        <time>2018-08-20T09:48:14.000Z</time>
      </trkpt>
      <trkpt lat="45.45087" lon="6.71463">
        <ele>1611.37</ele>
        <time>2018-08-20T09:48:24.000Z</time>
      </trkpt>
      <trkpt lat="45.45077" lon="6.71461">
        <ele>1613.82</ele>
        <time>2018-08-20T09:48:34.000Z</time>
      </trkpt>
      <trkpt lat="45.45069" lon="6.7146">
        <ele>1614.41</ele>
        <time>2018-08-20T09:48:44.000Z</time>
      </trkpt>
      <trkpt lat="45.45065" lon="6.71458">
        <ele>1615.96</ele>
        <time>2018-08-20T09:48:54.000Z</time>
      </trkpt>
      <trkpt lat="45.45056" lon="6.71452">
        <ele>1619.31</ele>
        <time>2018-08-20T09:49:04.000Z</time>
      </trkpt>
      <trkpt lat="45.45049" lon="6.71446">
        <ele>1621.11</ele>
        <time>2018-08-20T09:49:14.000Z</time>
      </trkpt>
      <trkpt lat="45.45046" lon="6.71444">
        <ele>1622.61</ele>
        <time>2018-08-20T09:49:24.000Z</time>
      </trkpt>
      <trkpt lat="45.45045" lon="6.71436">
        <ele>1624.15</ele>
        <time>2018-08-20T09:49:34.000Z</time>
      </trkpt>
      <trkpt lat="45.45048" lon="6.71436">
        <ele>1624.81</ele>
        <time>2018-08-20T09:49:44.000Z</time>
      </trkpt>
      <trkpt lat="45.45043" lon="6.71428">
        <ele>1625.93</ele>
        <time>2018-08-20T09:49:54.000Z</time>
      </trkpt>
      <trkpt lat="45.45035" lon="6.71421">
        <ele>1626.62</ele>
        <time>2018-08-20T09:50:04.000Z</time>
      </trkpt>
      <trkpt lat="45.45033" lon="6.71417">
        <ele>1627.26</ele>
        <time>2018-08-20T09:50:14.000Z</time>
      </trkpt>
      <trkpt lat="45.45035" lon="6.71412">
        <ele>1630.3</ele>
        <time>2018-08-20T09:50:24.000Z</time>
      </trkpt>
      <trkpt lat="45.45034" lon="6.71411">
        <ele>1630.71</ele>
        <time>2018-08-20T09:50:37.000Z</time>
      </trkpt>
      <trkpt lat="45.45032" lon="6.71405">
        <ele>1632.05</ele>
        <time>2018-08-20T09:50:47.000Z</time>
      </trkpt>
      <trkpt lat="45.45031" lon="6.71404">
        <ele>1632.39</ele>
        <time>2018-08-20T09:51:00.000Z</time>
      </trkpt>
      <trkpt lat="45.4503" lon="6.71401">
        <ele>1633.25</ele>
        <time>2018-08-20T09:51:10.000Z</time>
      </trkpt>
      <trkpt lat="45.45027" lon="6.71394">
        <ele>1632.01</ele>
        <time>2018-08-20T09:51:20.000Z</time>
      </trkpt>
      <trkpt lat="45.45022" lon="6.71381">
        <ele>1633.65</ele>
        <time>2018-08-20T09:51:30.000Z</time>
      </trkpt>
      <trkpt lat="45.4502" lon="6.71379">
        <ele>1633.83</ele>
        <time>2018-08-20T09:51:46.000Z</time>
      </trkpt>
      <trkpt lat="45.45019" lon="6.71364">
        <ele>1636.69</ele>
        <time>2018-08-20T09:51:56.000Z</time>
      </trkpt>
      <trkpt lat="45.45017" lon="6.71358">
        <ele>1637.33</ele>
        <time>2018-08-20T09:52:13.000Z</time>
      </trkpt>
      <trkpt lat="45.45013" lon="6.71353">
        <ele>1637.69</ele>
        <time>2018-08-20T09:52:23.000Z</time>
      </trkpt>
      <trkpt lat="45.45005" lon="6.71346">
        <ele>1638.66</ele>
        <time>2018-08-20T09:52:33.000Z</time>
      </trkpt>
      <trkpt lat="45.44994" lon="6.7134">
        <ele>1640.26</ele>
        <time>2018-08-20T09:52:43.000Z</time>
      </trkpt>
      <trkpt lat="45.4498" lon="6.71337">
        <ele>1642.44</ele>
        <time>2018-08-20T09:52:53.000Z</time>
      </trkpt>
      <trkpt lat="45.44965" lon="6.71326">
        <ele>1644.6</ele>
        <time>2018-08-20T09:53:03.000Z</time>
      </trkpt>
      <trkpt lat="45.4496" lon="6.71318">
        <ele>1648.38</ele>
        <time>2018-08-20T09:53:13.000Z</time>
      </trkpt>
      <trkpt lat="45.44957" lon="6.71316">
        <ele>1649.08</ele>
        <time>2018-08-20T09:53:23.000Z</time>
      </trkpt>
      <trkpt lat="45.44957" lon="6.71323">
        <ele>1647.85</ele>
        <time>2018-08-20T09:53:33.000Z</time>
      </trkpt>
      <trkpt lat="45.44957" lon="6.71325">
        <ele>1648.88</ele>
        <time>2018-08-20T09:53:51.000Z</time>
      </trkpt>
      <trkpt lat="45.44959" lon="6.71338">
        <ele>1655.13</ele>
        <time>2018-08-20T09:54:01.000Z</time>
      </trkpt>
      <trkpt lat="45.44961" lon="6.71349">
        <ele>1657.76</ele>
        <time>2018-08-20T09:54:11.000Z</time>
      </trkpt>
      <trkpt lat="45.44962" lon="6.71358">
        <ele>1657.97</ele>
        <time>2018-08-20T09:54:21.000Z</time>
      </trkpt>
      <trkpt lat="45.44965" lon="6.71363">
        <ele>1657.67</ele>
        <time>2018-08-20T09:54:31.000Z</time>
      </trkpt>
      <trkpt lat="45.44966" lon="6.71371">
        <ele>1657.4</ele>
        <time>2018-08-20T09:54:41.000Z</time>
      </trkpt>
      <trkpt lat="45.44969" lon="6.71378">
        <ele>1657.89</ele>
        <time>2018-08-20T09:54:51.000Z</time>
      </trkpt>
      <trkpt lat="45.44968" lon="6.71376">
        <ele>1658.62</ele>
        <time>2018-08-20T09:55:12.000Z</time>
      </trkpt>
      <trkpt lat="45.4496" lon="6.7137">
        <ele>1664.36</ele>
        <time>2018-08-20T09:55:22.000Z</time>
      </trkpt>
      <trkpt lat="45.44954" lon="6.71368">
        <ele>1665.62</ele>
        <time>2018-08-20T09:55:32.000Z</time>
      </trkpt>
      <trkpt lat="45.44949" lon="6.71365">
        <ele>1666.39</ele>
        <time>2018-08-20T09:55:42.000Z</time>
      </trkpt>
      <trkpt lat="45.44945" lon="6.71361">
        <ele>1666.71</ele>
        <time>2018-08-20T09:55:52.000Z</time>
      </trkpt>
      <trkpt lat="45.44944" lon="6.7136">
        <ele>1667.06</ele>
        <time>2018-08-20T09:56:37.000Z</time>
      </trkpt>
      <trkpt lat="45.4494" lon="6.71357">
        <ele>1668.55</ele>
        <time>2018-08-20T09:56:47.000Z</time>
      </trkpt>
      <trkpt lat="45.44939" lon="6.71357">
        <ele>1668.71</ele>
        <time>2018-08-20T09:57:09.000Z</time>
      </trkpt>
      <trkpt lat="45.44935" lon="6.71355">
        <ele>1669.34</ele>
        <time>2018-08-20T09:57:19.000Z</time>
      </trkpt>
      <trkpt lat="45.44914" lon="6.71334">
        <ele>1667.5</ele>
        <time>2018-08-20T09:57:29.000Z</time>
      </trkpt>
      <trkpt lat="45.44913" lon="6.71332">
        <ele>1667.4</ele>
        <time>2018-08-20T09:57:39.000Z</time>
      </trkpt>
      <trkpt lat="45.44907" lon="6.71313">
        <ele>1668.67</ele>
        <time>2018-08-20T09:57:49.000Z</time>
      </trkpt>
      <trkpt lat="45.44898" lon="6.71304">
        <ele>1671.72</ele>
        <time>2018-08-20T09:57:59.000Z</time>
      </trkpt>
      <trkpt lat="45.44893" lon="6.71299">
        <ele>1672.32</ele>
        <time>2018-08-20T09:58:09.000Z</time>
      </trkpt>
      <trkpt lat="45.44884" lon="6.71296">
        <ele>1671.63</ele>
        <time>2018-08-20T09:58:19.000Z</time>
      </trkpt>
      <trkpt lat="45.44881" lon="6.71293">
        <ele>1671.96</ele>
        <time>2018-08-20T09:58:33.000Z</time>
      </trkpt>
      <trkpt lat="45.44863" lon="6.71279">
        <ele>1673.51</ele>
        <time>2018-08-20T09:58:43.000Z</time>
      </trkpt>
      <trkpt lat="45.44853" lon="6.71267">
        <ele>1675.81</ele>
        <time>2018-08-20T09:58:53.000Z</time>
      </trkpt>
      <trkpt lat="45.44845" lon="6.71254">
        <ele>1680</ele>
        <time>2018-08-20T09:59:03.000Z</time>
      </trkpt>
      <trkpt lat="45.44841" lon="6.71252">
        <ele>1681.72</ele>
        <time>2018-08-20T09:59:13.000Z</time>
      </trkpt>
      <trkpt lat="45.44841" lon="6.7125">
        <ele>1681.89</ele>
        <time>2018-08-20T09:59:30.000Z</time>
      </trkpt>
      <trkpt lat="45.44835" lon="6.71235">
        <ele>1684.73</ele>
        <time>2018-08-20T09:59:40.000Z</time>
      </trkpt>
      <trkpt lat="45.44827" lon="6.71233">
        <ele>1687.48</ele>
        <time>2018-08-20T09:59:50.000Z</time>
      </trkpt>
      <trkpt lat="45.44824" lon="6.71227">
        <ele>1688.92</ele>
        <time>2018-08-20T10:00:00.000Z</time>
      </trkpt>
      <trkpt lat="45.44822" lon="6.71227">
        <ele>1689.41</ele>
        <time>2018-08-20T10:00:11.000Z</time>
      </trkpt>
      <trkpt lat="45.44809" lon="6.71226">
        <ele>1692.72</ele>
        <time>2018-08-20T10:00:21.000Z</time>
      </trkpt>
      <trkpt lat="45.44808" lon="6.71227">
        <ele>1693.05</ele>
        <time>2018-08-20T10:00:31.000Z</time>
      </trkpt>
      <trkpt lat="45.44807" lon="6.71224">
        <ele>1697.52</ele>
        <time>2018-08-20T10:01:17.000Z</time>
      </trkpt>
      <trkpt lat="45.44806" lon="6.71207">
        <ele>1706.58</ele>
        <time>2018-08-20T10:01:27.000Z</time>
      </trkpt>
      <trkpt lat="45.44803" lon="6.71199">
        <ele>1709.18</ele>
        <time>2018-08-20T10:01:37.000Z</time>
      </trkpt>
      <trkpt lat="45.44801" lon="6.71184">
        <ele>1714.34</ele>
        <time>2018-08-20T10:01:47.000Z</time>
      </trkpt>
      <trkpt lat="45.44801" lon="6.71175">
        <ele>1719.37</ele>
        <time>2018-08-20T10:01:57.000Z</time>
      </trkpt>
      <trkpt lat="45.44801" lon="6.71173">
        <ele>1720.64</ele>
        <time>2018-08-20T10:02:07.000Z</time>
      </trkpt>
      <trkpt lat="45.44785" lon="6.71172">
        <ele>1720.85</ele>
        <time>2018-08-20T10:02:17.000Z</time>
      </trkpt>
      <trkpt lat="45.44777" lon="6.71167">
        <ele>1722.8</ele>
        <time>2018-08-20T10:02:27.000Z</time>
      </trkpt>
      <trkpt lat="45.4477" lon="6.71161">
        <ele>1727.47</ele>
        <time>2018-08-20T10:02:37.000Z</time>
      </trkpt>
      <trkpt lat="45.44764" lon="6.71153">
        <ele>1730.55</ele>
        <time>2018-08-20T10:02:47.000Z</time>
      </trkpt>
      <trkpt lat="45.44761" lon="6.71144">
        <ele>1734.54</ele>
        <time>2018-08-20T10:02:57.000Z</time>
      </trkpt>
      <trkpt lat="45.44757" lon="6.71136">
        <ele>1736.45</ele>
        <time>2018-08-20T10:03:07.000Z</time>
      </trkpt>
      <trkpt lat="45.44752" lon="6.7113">
        <ele>1733.29</ele>
        <time>2018-08-20T10:03:17.000Z</time>
      </trkpt>
      <trkpt lat="45.44743" lon="6.71125">
        <ele>1732.54</ele>
        <time>2018-08-20T10:03:27.000Z</time>
      </trkpt>
      <trkpt lat="45.44737" lon="6.71114">
        <ele>1736.12</ele>
        <time>2018-08-20T10:03:37.000Z</time>
      </trkpt>
      <trkpt lat="45.44736" lon="6.71108">
        <ele>1737.4</ele>
        <time>2018-08-20T10:03:47.000Z</time>
      </trkpt>
      <trkpt lat="45.44736" lon="6.71106">
        <ele>1737.57</ele>
        <time>2018-08-20T10:04:09.000Z</time>
      </trkpt>
      <trkpt lat="45.44731" lon="6.71105">
        <ele>1738.14</ele>
        <time>2018-08-20T10:04:19.000Z</time>
      </trkpt>
      <trkpt lat="45.44724" lon="6.71104">
        <ele>1737.41</ele>
        <time>2018-08-20T10:04:29.000Z</time>
      </trkpt>
      <trkpt lat="45.44717" lon="6.71094">
        <ele>1739.41</ele>
        <time>2018-08-20T10:04:39.000Z</time>
      </trkpt>
      <trkpt lat="45.44715" lon="6.71086">
        <ele>1739.05</ele>
        <time>2018-08-20T10:04:49.000Z</time>
      </trkpt>
      <trkpt lat="45.44715" lon="6.71084">
        <ele>1738.82</ele>
        <time>2018-08-20T10:05:00.000Z</time>
      </trkpt>
      <trkpt lat="45.44717" lon="6.71073">
        <ele>1738.69</ele>
        <time>2018-08-20T10:05:10.000Z</time>
      </trkpt>
      <trkpt lat="45.44716" lon="6.71057">
        <ele>1740.91</ele>
        <time>2018-08-20T10:05:20.000Z</time>
      </trkpt>
      <trkpt lat="45.44711" lon="6.71049">
        <ele>1740.62</ele>
        <time>2018-08-20T10:05:30.000Z</time>
      </trkpt>
      <trkpt lat="45.44706" lon="6.71039">
        <ele>1743.82</ele>
        <time>2018-08-20T10:05:40.000Z</time>
      </trkpt>
      <trkpt lat="45.44693" lon="6.71038">
        <ele>1746.72</ele>
        <time>2018-08-20T10:05:50.000Z</time>
      </trkpt>
      <trkpt lat="45.44682" lon="6.71035">
        <ele>1746.95</ele>
        <time>2018-08-20T10:06:00.000Z</time>
      </trkpt>
      <trkpt lat="45.44678" lon="6.71035">
        <ele>1747.36</ele>
        <time>2018-08-20T10:06:10.000Z</time>
      </trkpt>
      <trkpt lat="45.44679" lon="6.71041">
        <ele>1748.58</ele>
        <time>2018-08-20T10:06:20.000Z</time>
      </trkpt>
      <trkpt lat="45.44681" lon="6.71049">
        <ele>1751.7</ele>
        <time>2018-08-20T10:06:30.000Z</time>
      </trkpt>
      <trkpt lat="45.4468" lon="6.71052">
        <ele>1751.65</ele>
        <time>2018-08-20T10:06:40.000Z</time>
      </trkpt>
      <trkpt lat="45.44681" lon="6.71052">
        <ele>1750.93</ele>
        <time>2018-08-20T10:06:50.000Z</time>
      </trkpt>
      <trkpt lat="45.44681" lon="6.71051">
        <ele>1750.62</ele>
        <time>2018-08-20T10:09:51.000Z</time>
      </trkpt>
      <trkpt lat="45.44683" lon="6.71051">
        <ele>1750.61</ele>
        <time>2018-08-20T10:10:01.000Z</time>
      </trkpt>
      <trkpt lat="45.44685" lon="6.71051">
        <ele>1750.56</ele>
        <time>2018-08-20T10:10:16.000Z</time>
      </trkpt>
      <trkpt lat="45.44688" lon="6.71054">
        <ele>1749.89</ele>
        <time>2018-08-20T10:10:26.000Z</time>
      </trkpt>
      <trkpt lat="45.44692" lon="6.71059">
        <ele>1748.42</ele>
        <time>2018-08-20T10:10:36.000Z</time>
      </trkpt>
      <trkpt lat="45.44688" lon="6.7106">
        <ele>1748.61</ele>
        <time>2018-08-20T10:21:02.672Z</time>
      </trkpt>
      <trkpt lat="45.44681" lon="6.71053">
        <ele>1739.63</ele>
        <time>2018-08-20T10:21:12.000Z</time>
      </trkpt>
      <trkpt lat="45.44681" lon="6.71052">
        <ele>1740.15</ele>
        <time>2018-08-20T10:22:58.000Z</time>
      </trkpt>
      <trkpt lat="45.4468" lon="6.71047">
        <ele>1741.2</ele>
        <time>2018-08-20T10:23:08.000Z</time>
      </trkpt>
      <trkpt lat="45.44679" lon="6.71045">
        <ele>1741.14</ele>
        <time>2018-08-20T10:23:35.000Z</time>
      </trkpt>
      <trkpt lat="45.44675" lon="6.71035">
        <ele>1739.85</ele>
        <time>2018-08-20T10:23:45.000Z</time>
      </trkpt>
      <trkpt lat="45.44666" lon="6.71024">
        <ele>1740.59</ele>
        <time>2018-08-20T10:23:55.000Z</time>
      </trkpt>
      <trkpt lat="45.44657" lon="6.71016">
        <ele>1743.36</ele>
        <time>2018-08-20T10:24:05.000Z</time>
      </trkpt>
      <trkpt lat="45.44654" lon="6.71016">
        <ele>1742.86</ele>
        <time>2018-08-20T10:24:15.000Z</time>
      </trkpt>
      <trkpt lat="45.44644" lon="6.71008">
        <ele>1741.8</ele>
        <time>2018-08-20T10:24:25.000Z</time>
      </trkpt>
      <trkpt lat="45.44639" lon="6.70998">
        <ele>1740.96</ele>
        <time>2018-08-20T10:24:35.000Z</time>
      </trkpt>
      <trkpt lat="45.44638" lon="6.70985">
        <ele>1742.63</ele>
        <time>2018-08-20T10:24:45.000Z</time>
      </trkpt>
      <trkpt lat="45.44636" lon="6.70972">
        <ele>1746.03</ele>
        <time>2018-08-20T10:24:55.000Z</time>
      </trkpt>
      <trkpt lat="45.44634" lon="6.70968">
        <ele>1745.96</ele>
        <time>2018-08-20T10:25:05.000Z</time>
      </trkpt>
      <trkpt lat="45.44634" lon="6.70966">
        <ele>1745.85</ele>
        <time>2018-08-20T10:25:15.000Z</time>
      </trkpt>
      <trkpt lat="45.4463" lon="6.70955">
        <ele>1745.14</ele>
        <time>2018-08-20T10:25:25.000Z</time>
      </trkpt>
      <trkpt lat="45.44624" lon="6.70947">
        <ele>1744.98</ele>
        <time>2018-08-20T10:25:35.000Z</time>
      </trkpt>
      <trkpt lat="45.44616" lon="6.70936">
        <ele>1745.37</ele>
        <time>2018-08-20T10:25:45.000Z</time>
      </trkpt>
      <trkpt lat="45.44612" lon="6.70928">
        <ele>1747.59</ele>
        <time>2018-08-20T10:25:55.000Z</time>
      </trkpt>
      <trkpt lat="45.44609" lon="6.70927">
        <ele>1747.69</ele>
        <time>2018-08-20T10:26:37.000Z</time>
      </trkpt>
      <trkpt lat="45.44596" lon="6.70915">
        <ele>1745.45</ele>
        <time>2018-08-20T10:26:47.000Z</time>
      </trkpt>
      <trkpt lat="45.44591" lon="6.70908">
        <ele>1746.73</ele>
        <time>2018-08-20T10:26:57.000Z</time>
      </trkpt>
      <trkpt lat="45.44576" lon="6.70899">
        <ele>1747.24</ele>
        <time>2018-08-20T10:27:07.000Z</time>
      </trkpt>
      <trkpt lat="45.44574" lon="6.70899">
        <ele>1747.45</ele>
        <time>2018-08-20T10:27:17.000Z</time>
      </trkpt>
      <trkpt lat="45.44565" lon="6.70893">
        <ele>1750.01</ele>
        <time>2018-08-20T10:27:27.000Z</time>
      </trkpt>
      <trkpt lat="45.44565" lon="6.70888">
        <ele>1752.72</ele>
        <time>2018-08-20T10:27:37.000Z</time>
      </trkpt>
      <trkpt lat="45.44564" lon="6.70887">
        <ele>1752.86</ele>
        <time>2018-08-20T10:27:47.000Z</time>
      </trkpt>
      <trkpt lat="45.44561" lon="6.70875">
        <ele>1754.01</ele>
        <time>2018-08-20T10:27:57.000Z</time>
      </trkpt>
      <trkpt lat="45.44559" lon="6.70864">
        <ele>1755.45</ele>
        <time>2018-08-20T10:28:07.000Z</time>
      </trkpt>
      <trkpt lat="45.44558" lon="6.70856">
        <ele>1755.03</ele>
        <time>2018-08-20T10:28:17.000Z</time>
      </trkpt>
      <trkpt lat="45.44549" lon="6.70833">
        <ele>1756.08</ele>
        <time>2018-08-20T10:28:27.000Z</time>
      </trkpt>
      <trkpt lat="45.44548" lon="6.7083">
        <ele>1755.88</ele>
        <time>2018-08-20T10:28:37.000Z</time>
      </trkpt>
      <trkpt lat="45.44544" lon="6.70812">
        <ele>1756.26</ele>
        <time>2018-08-20T10:28:47.000Z</time>
      </trkpt>
      <trkpt lat="45.44545" lon="6.70808">
        <ele>1756.52</ele>
        <time>2018-08-20T10:28:57.000Z</time>
      </trkpt>
      <trkpt lat="45.44549" lon="6.70788">
        <ele>1759.12</ele>
        <time>2018-08-20T10:29:07.000Z</time>
      </trkpt>
      <trkpt lat="45.44549" lon="6.70787">
        <ele>1757.8</ele>
        <time>2018-08-20T10:29:17.000Z</time>
      </trkpt>
      <trkpt lat="45.44547" lon="6.70783">
        <ele>1758.02</ele>
        <time>2018-08-20T10:29:27.000Z</time>
      </trkpt>
      <trkpt lat="45.44547" lon="6.70776">
        <ele>1754.4</ele>
        <time>2018-08-20T10:29:37.000Z</time>
      </trkpt>
      <trkpt lat="45.44548" lon="6.70764">
        <ele>1747.27</ele>
        <time>2018-08-20T10:29:47.000Z</time>
      </trkpt>
      <trkpt lat="45.44548" lon="6.70761">
        <ele>1746.13</ele>
        <time>2018-08-20T10:30:07.000Z</time>
      </trkpt>
      <trkpt lat="45.44538" lon="6.70747">
        <ele>1745.37</ele>
        <time>2018-08-20T10:30:17.000Z</time>
      </trkpt>
      <trkpt lat="45.44535" lon="6.70729">
        <ele>1746.98</ele>
        <time>2018-08-20T10:30:27.000Z</time>
      </trkpt>
      <trkpt lat="45.44534" lon="6.70726">
        <ele>1746.79</ele>
        <time>2018-08-20T10:30:37.000Z</time>
      </trkpt>
      <trkpt lat="45.44536" lon="6.70724">
        <ele>1745.43</ele>
        <time>2018-08-20T10:30:47.000Z</time>
      </trkpt>
      <trkpt lat="45.44536" lon="6.70721">
        <ele>1745.15</ele>
        <time>2018-08-20T10:31:05.000Z</time>
      </trkpt>
      <trkpt lat="45.44535" lon="6.70716">
        <ele>1744.97</ele>
        <time>2018-08-20T10:31:15.000Z</time>
      </trkpt>
      <trkpt lat="45.44535" lon="6.70703">
        <ele>1746.43</ele>
        <time>2018-08-20T10:31:25.000Z</time>
      </trkpt>
      <trkpt lat="45.44534" lon="6.70696">
        <ele>1748.19</ele>
        <time>2018-08-20T10:31:35.000Z</time>
      </trkpt>
      <trkpt lat="45.44532" lon="6.70696">
        <ele>1748.18</ele>
        <time>2018-08-20T10:31:49.000Z</time>
      </trkpt>
      <trkpt lat="45.44529" lon="6.70693">
        <ele>1748.14</ele>
        <time>2018-08-20T10:31:59.000Z</time>
      </trkpt>
      <trkpt lat="45.4453" lon="6.70691">
        <ele>1749.54</ele>
        <time>2018-08-20T10:32:25.000Z</time>
      </trkpt>
      <trkpt lat="45.44529" lon="6.70687">
        <ele>1750.44</ele>
        <time>2018-08-20T10:32:47.000Z</time>
      </trkpt>
      <trkpt lat="45.44527" lon="6.70677">
        <ele>1752.34</ele>
        <time>2018-08-20T10:32:57.000Z</time>
      </trkpt>
      <trkpt lat="45.44531" lon="6.70679">
        <ele>1753.12</ele>
        <time>2018-08-20T10:33:07.000Z</time>
      </trkpt>
      <trkpt lat="45.44529" lon="6.7068">
        <ele>1753</ele>
        <time>2018-08-20T10:33:26.000Z</time>
      </trkpt>
      <trkpt lat="45.44525" lon="6.70674">
        <ele>1752.73</ele>
        <time>2018-08-20T10:33:36.000Z</time>
      </trkpt>
      <trkpt lat="45.44523" lon="6.70651">
        <ele>1750.05</ele>
        <time>2018-08-20T10:33:46.000Z</time>
      </trkpt>
      <trkpt lat="45.44522" lon="6.70657">
        <ele>1748.91</ele>
        <time>2018-08-20T10:33:56.000Z</time>
      </trkpt>
      <trkpt lat="45.44525" lon="6.70652">
        <ele>1746.8</ele>
        <time>2018-08-20T10:34:06.000Z</time>
      </trkpt>
      <trkpt lat="45.44526" lon="6.70648">
        <ele>1745.64</ele>
        <time>2018-08-20T10:34:16.000Z</time>
      </trkpt>
      <trkpt lat="45.44526" lon="6.70646">
        <ele>1746.73</ele>
        <time>2018-08-20T10:34:28.000Z</time>
      </trkpt>
      <trkpt lat="45.4453" lon="6.7064">
        <ele>1748.9</ele>
        <time>2018-08-20T10:34:38.000Z</time>
      </trkpt>
      <trkpt lat="45.44532" lon="6.70638">
        <ele>1750.64</ele>
        <time>2018-08-20T10:34:48.000Z</time>
      </trkpt>
      <trkpt lat="45.44533" lon="6.70635">
        <ele>1750.73</ele>
        <time>2018-08-20T10:35:02.000Z</time>
      </trkpt>
      <trkpt lat="45.44539" lon="6.70622">
        <ele>1750.98</ele>
        <time>2018-08-20T10:35:12.000Z</time>
      </trkpt>
      <trkpt lat="45.44545" lon="6.70608">
        <ele>1755.23</ele>
        <time>2018-08-20T10:35:22.000Z</time>
      </trkpt>
      <trkpt lat="45.44552" lon="6.70592">
        <ele>1761.57</ele>
        <time>2018-08-20T10:35:32.000Z</time>
      </trkpt>
      <trkpt lat="45.44554" lon="6.70583">
        <ele>1761.97</ele>
        <time>2018-08-20T10:35:42.000Z</time>
      </trkpt>
      <trkpt lat="45.44562" lon="6.70562">
        <ele>1762.2</ele>
        <time>2018-08-20T10:35:52.000Z</time>
      </trkpt>
      <trkpt lat="45.44566" lon="6.70556">
        <ele>1761.59</ele>
        <time>2018-08-20T10:36:02.000Z</time>
      </trkpt>
      <trkpt lat="45.44568" lon="6.7055">
        <ele>1760.78</ele>
        <time>2018-08-20T10:36:12.000Z</time>
      </trkpt>
      <trkpt lat="45.44572" lon="6.70536">
        <ele>1759.54</ele>
        <time>2018-08-20T10:36:22.000Z</time>
      </trkpt>
      <trkpt lat="45.44576" lon="6.70529">
        <ele>1758.23</ele>
        <time>2018-08-20T10:36:32.000Z</time>
      </trkpt>
      <trkpt lat="45.44588" lon="6.70499">
        <ele>1754.04</ele>
        <time>2018-08-20T10:36:42.000Z</time>
      </trkpt>
      <trkpt lat="45.44589" lon="6.70493">
        <ele>1752.68</ele>
        <time>2018-08-20T10:36:52.000Z</time>
      </trkpt>
      <trkpt lat="45.4459" lon="6.70482">
        <ele>1751.24</ele>
        <time>2018-08-20T10:37:02.000Z</time>
      </trkpt>
      <trkpt lat="45.44588" lon="6.70479">
        <ele>1751.24</ele>
        <time>2018-08-20T10:37:12.000Z</time>
      </trkpt>
      <trkpt lat="45.44584" lon="6.70464">
        <ele>1748.04</ele>
        <time>2018-08-20T10:37:22.000Z</time>
      </trkpt>
      <trkpt lat="45.44587" lon="6.70447">
        <ele>1748.11</ele>
        <time>2018-08-20T10:37:32.000Z</time>
      </trkpt>
      <trkpt lat="45.44587" lon="6.70442">
        <ele>1747.93</ele>
        <time>2018-08-20T10:37:42.000Z</time>
      </trkpt>
      <trkpt lat="45.44585" lon="6.70437">
        <ele>1747.11</ele>
        <time>2018-08-20T10:37:52.000Z</time>
      </trkpt>
      <trkpt lat="45.44579" lon="6.70438">
        <ele>1745.94</ele>
        <time>2018-08-20T10:38:02.000Z</time>
      </trkpt>
      <trkpt lat="45.44577" lon="6.7044">
        <ele>1745.27</ele>
        <time>2018-08-20T10:38:12.000Z</time>
      </trkpt>
      <trkpt lat="45.44578" lon="6.70439">
        <ele>1742.71</ele>
        <time>2018-08-20T10:38:22.000Z</time>
      </trkpt>
      <trkpt lat="45.44579" lon="6.7044">
        <ele>1742.87</ele>
        <time>2018-08-20T10:38:48.000Z</time>
      </trkpt>
      <trkpt lat="45.44589" lon="6.70446">
        <ele>1740.29</ele>
        <time>2018-08-20T10:38:58.000Z</time>
      </trkpt>
      <trkpt lat="45.44601" lon="6.70432">
        <ele>1736.16</ele>
        <time>2018-08-20T10:39:08.000Z</time>
      </trkpt>
      <trkpt lat="45.44603" lon="6.70438">
        <ele>1735.45</ele>
        <time>2018-08-20T10:39:18.000Z</time>
      </trkpt>
      <trkpt lat="45.44605" lon="6.70442">
        <ele>1734.78</ele>
        <time>2018-08-20T10:39:28.000Z</time>
      </trkpt>
      <trkpt lat="45.44606" lon="6.7044">
        <ele>1731.8</ele>
        <time>2018-08-20T10:39:38.000Z</time>
      </trkpt>
      <trkpt lat="45.44609" lon="6.70443">
        <ele>1731.58</ele>
        <time>2018-08-20T10:39:58.000Z</time>
      </trkpt>
      <trkpt lat="45.44634" lon="6.70445">
        <ele>1727.18</ele>
        <time>2018-08-20T10:40:08.000Z</time>
      </trkpt>
      <trkpt lat="45.44642" lon="6.70442">
        <ele>1722.29</ele>
        <time>2018-08-20T10:40:18.000Z</time>
      </trkpt>
      <trkpt lat="45.44647" lon="6.70439">
        <ele>1719.76</ele>
        <time>2018-08-20T10:40:28.000Z</time>
      </trkpt>
      <trkpt lat="45.44648" lon="6.70437">
        <ele>1720</ele>
        <time>2018-08-20T10:40:38.000Z</time>
      </trkpt>
      <trkpt lat="45.4465" lon="6.7042">
        <ele>1711.69</ele>
        <time>2018-08-20T10:40:48.000Z</time>
      </trkpt>
      <trkpt lat="45.44647" lon="6.70399">
        <ele>1705.91</ele>
        <time>2018-08-20T10:40:58.000Z</time>
      </trkpt>
      <trkpt lat="45.44653" lon="6.70398">
        <ele>1700.92</ele>
        <time>2018-08-20T10:41:08.000Z</time>
      </trkpt>
      <trkpt lat="45.44652" lon="6.70395">
        <ele>1699.45</ele>
        <time>2018-08-20T10:41:28.000Z</time>
      </trkpt>
      <trkpt lat="45.44652" lon="6.70379">
        <ele>1694.18</ele>
        <time>2018-08-20T10:41:38.000Z</time>
      </trkpt>
      <trkpt lat="45.4464" lon="6.70374">
        <ele>1691.78</ele>
        <time>2018-08-20T10:41:48.000Z</time>
      </trkpt>
      <trkpt lat="45.4464" lon="6.70373">
        <ele>1691.56</ele>
        <time>2018-08-20T10:42:02.000Z</time>
      </trkpt>
      <trkpt lat="45.44644" lon="6.70361">
        <ele>1688.66</ele>
        <time>2018-08-20T10:42:12.000Z</time>
      </trkpt>
      <trkpt lat="45.44646" lon="6.70362">
        <ele>1688.72</ele>
        <time>2018-08-20T10:42:28.000Z</time>
      </trkpt>
      <trkpt lat="45.44648" lon="6.70362">
        <ele>1688.84</ele>
        <time>2018-08-20T10:42:38.000Z</time>
      </trkpt>
      <trkpt lat="45.4466" lon="6.70337">
        <ele>1679.35</ele>
        <time>2018-08-20T10:42:48.000Z</time>
      </trkpt>
      <trkpt lat="45.44667" lon="6.70329">
        <ele>1673.34</ele>
        <time>2018-08-20T10:42:58.000Z</time>
      </trkpt>
      <trkpt lat="45.44669" lon="6.70337">
        <ele>1673.18</ele>
        <time>2018-08-20T10:43:08.000Z</time>
      </trkpt>
      <trkpt lat="45.44671" lon="6.70343">
        <ele>1672.74</ele>
        <time>2018-08-20T10:43:18.000Z</time>
      </trkpt>
      <trkpt lat="45.44676" lon="6.7035">
        <ele>1671.19</ele>
        <time>2018-08-20T10:43:28.000Z</time>
      </trkpt>
      <trkpt lat="45.44677" lon="6.70353">
        <ele>1668.55</ele>
        <time>2018-08-20T10:43:38.000Z</time>
      </trkpt>
      <trkpt lat="45.4468" lon="6.70353">
        <ele>1667.77</ele>
        <time>2018-08-20T10:43:56.000Z</time>
      </trkpt>
      <trkpt lat="45.44697" lon="6.70356">
        <ele>1665.79</ele>
        <time>2018-08-20T10:44:06.000Z</time>
      </trkpt>
      <trkpt lat="45.44715" lon="6.70357">
        <ele>1660.2</ele>
        <time>2018-08-20T10:44:16.000Z</time>
      </trkpt>
      <trkpt lat="45.44716" lon="6.70361">
        <ele>1658.99</ele>
        <time>2018-08-20T10:44:26.000Z</time>
      </trkpt>
      <trkpt lat="45.44711" lon="6.70367">
        <ele>1655.68</ele>
        <time>2018-08-20T10:44:36.000Z</time>
      </trkpt>
      <trkpt lat="45.44712" lon="6.70369">
        <ele>1652.37</ele>
        <time>2018-08-20T10:44:46.000Z</time>
      </trkpt>
      <trkpt lat="45.44714" lon="6.70373">
        <ele>1652.01</ele>
        <time>2018-08-20T10:45:07.000Z</time>
      </trkpt>
      <trkpt lat="45.44729" lon="6.70386">
        <ele>1649.43</ele>
        <time>2018-08-20T10:45:17.000Z</time>
      </trkpt>
      <trkpt lat="45.44733" lon="6.70388">
        <ele>1645.59</ele>
        <time>2018-08-20T10:45:27.000Z</time>
      </trkpt>
      <trkpt lat="45.44748" lon="6.704">
        <ele>1640.47</ele>
        <time>2018-08-20T10:45:37.000Z</time>
      </trkpt>
      <trkpt lat="45.44761" lon="6.70395">
        <ele>1631.64</ele>
        <time>2018-08-20T10:45:47.000Z</time>
      </trkpt>
      <trkpt lat="45.44766" lon="6.70399">
        <ele>1626.87</ele>
        <time>2018-08-20T10:45:57.000Z</time>
      </trkpt>
      <trkpt lat="45.44768" lon="6.704">
        <ele>1625.31</ele>
        <time>2018-08-20T10:46:07.000Z</time>
      </trkpt>
      <trkpt lat="45.44775" lon="6.70409">
        <ele>1625.01</ele>
        <time>2018-08-20T10:46:17.000Z</time>
      </trkpt>
      <trkpt lat="45.44783" lon="6.70409">
        <ele>1621.75</ele>
        <time>2018-08-20T10:46:27.000Z</time>
      </trkpt>
      <trkpt lat="45.4479" lon="6.70402">
        <ele>1615.97</ele>
        <time>2018-08-20T10:46:37.000Z</time>
      </trkpt>
      <trkpt lat="45.44792" lon="6.70404">
        <ele>1616.06</ele>
        <time>2018-08-20T10:47:27.000Z</time>
      </trkpt>
      <trkpt lat="45.44797" lon="6.7041">
        <ele>1617.17</ele>
        <time>2018-08-20T10:47:37.000Z</time>
      </trkpt>
      <trkpt lat="45.44796" lon="6.70415">
        <ele>1614.42</ele>
        <time>2018-08-20T10:47:47.000Z</time>
      </trkpt>
      <trkpt lat="45.448" lon="6.70422">
        <ele>1610.11</ele>
        <time>2018-08-20T10:47:57.000Z</time>
      </trkpt>
      <trkpt lat="45.44818" lon="6.70421">
        <ele>1606.59</ele>
        <time>2018-08-20T10:48:07.000Z</time>
      </trkpt>
      <trkpt lat="45.44826" lon="6.70413">
        <ele>1602.33</ele>
        <time>2018-08-20T10:48:17.000Z</time>
      </trkpt>
      <trkpt lat="45.44829" lon="6.70405">
        <ele>1597.56</ele>
        <time>2018-08-20T10:48:27.000Z</time>
      </trkpt>
      <trkpt lat="45.44826" lon="6.70406">
        <ele>1596.77</ele>
        <time>2018-08-20T10:48:37.000Z</time>
      </trkpt>
      <trkpt lat="45.44824" lon="6.70409">
        <ele>1594.46</ele>
        <time>2018-08-20T10:48:47.000Z</time>
      </trkpt>
      <trkpt lat="45.44825" lon="6.7041">
        <ele>1594.13</ele>
        <time>2018-08-20T10:49:00.000Z</time>
      </trkpt>
      <trkpt lat="45.44827" lon="6.70419">
        <ele>1591.14</ele>
        <time>2018-08-20T10:49:10.000Z</time>
      </trkpt>
      <trkpt lat="45.4483" lon="6.70428">
        <ele>1588.03</ele>
        <time>2018-08-20T10:49:20.000Z</time>
      </trkpt>
      <trkpt lat="45.44832" lon="6.70441">
        <ele>1582.94</ele>
        <time>2018-08-20T10:49:30.000Z</time>
      </trkpt>
      <trkpt lat="45.44833" lon="6.70446">
        <ele>1581.31</ele>
        <time>2018-08-20T10:49:40.000Z</time>
      </trkpt>
      <trkpt lat="45.44842" lon="6.70449">
        <ele>1580.47</ele>
        <time>2018-08-20T10:49:50.000Z</time>
      </trkpt>
      <trkpt lat="45.44838" lon="6.70452">
        <ele>1575.3</ele>
        <time>2018-08-20T10:50:00.000Z</time>
      </trkpt>
      <trkpt lat="45.44845" lon="6.70452">
        <ele>1578.92</ele>
        <time>2018-08-20T10:50:10.000Z</time>
      </trkpt>
      <trkpt lat="45.44844" lon="6.70457">
        <ele>1577.07</ele>
        <time>2018-08-20T10:50:20.000Z</time>
      </trkpt>
      <trkpt lat="45.44847" lon="6.70456">
        <ele>1576.19</ele>
        <time>2018-08-20T10:50:30.000Z</time>
      </trkpt>
      <trkpt lat="45.44855" lon="6.70454">
        <ele>1573.87</ele>
        <time>2018-08-20T10:50:40.000Z</time>
      </trkpt>
      <trkpt lat="45.44865" lon="6.70454">
        <ele>1570.63</ele>
        <time>2018-08-20T10:50:50.000Z</time>
      </trkpt>
      <trkpt lat="45.44862" lon="6.70457">
        <ele>1567.07</ele>
        <time>2018-08-20T10:51:00.000Z</time>
      </trkpt>
      <trkpt lat="45.44866" lon="6.70456">
        <ele>1567.57</ele>
        <time>2018-08-20T10:51:10.000Z</time>
      </trkpt>
      <trkpt lat="45.44867" lon="6.70459">
        <ele>1565.7</ele>
        <time>2018-08-20T10:51:20.000Z</time>
      </trkpt>
      <trkpt lat="45.44876" lon="6.70455">
        <ele>1557.25</ele>
        <time>2018-08-20T10:51:30.000Z</time>
      </trkpt>
      <trkpt lat="45.4488" lon="6.70455">
        <ele>1556.79</ele>
        <time>2018-08-20T10:51:40.000Z</time>
      </trkpt>
      <trkpt lat="45.44882" lon="6.70455">
        <ele>1557.38</ele>
        <time>2018-08-20T10:51:50.000Z</time>
      </trkpt>
      <trkpt lat="45.44884" lon="6.70456">
        <ele>1557.24</ele>
        <time>2018-08-20T10:54:37.000Z</time>
      </trkpt>
      <trkpt lat="45.44892" lon="6.70454">
        <ele>1555.6</ele>
        <time>2018-08-20T10:54:47.000Z</time>
      </trkpt>
      <trkpt lat="45.44891" lon="6.70452">
        <ele>1555.7</ele>
        <time>2018-08-20T10:55:02.000Z</time>
      </trkpt>
      <trkpt lat="45.4489" lon="6.7045">
        <ele>1555.67</ele>
        <time>2018-08-20T10:55:12.000Z</time>
      </trkpt>
      <trkpt lat="45.44889" lon="6.70448">
        <ele>1555.61</ele>
        <time>2018-08-20T10:55:22.000Z</time>
      </trkpt>
      <trkpt lat="45.44888" lon="6.70447">
        <ele>1555.27</ele>
        <time>2018-08-20T10:55:40.000Z</time>
      </trkpt>
      <trkpt lat="45.44883" lon="6.70438">
        <ele>1545.9</ele>
        <time>2018-08-20T10:55:50.000Z</time>
      </trkpt>
      <trkpt lat="45.44882" lon="6.70428">
        <ele>1546.46</ele>
        <time>2018-08-20T10:56:00.000Z</time>
      </trkpt>
      <trkpt lat="45.4488" lon="6.70414">
        <ele>1545.77</ele>
        <time>2018-08-20T10:56:10.000Z</time>
      </trkpt>
      <trkpt lat="45.44877" lon="6.70403">
        <ele>1541.6</ele>
        <time>2018-08-20T10:56:20.000Z</time>
      </trkpt>
      <trkpt lat="45.44871" lon="6.7039">
        <ele>1541.57</ele>
        <time>2018-08-20T10:56:30.000Z</time>
      </trkpt>
      <trkpt lat="45.44863" lon="6.70376">
        <ele>1540.64</ele>
        <time>2018-08-20T10:56:40.000Z</time>
      </trkpt>
      <trkpt lat="45.44857" lon="6.70366">
        <ele>1540.91</ele>
        <time>2018-08-20T10:56:50.000Z</time>
      </trkpt>
      <trkpt lat="45.44853" lon="6.70357">
        <ele>1542.34</ele>
        <time>2018-08-20T10:57:00.000Z</time>
      </trkpt>
      <trkpt lat="45.44847" lon="6.7035">
        <ele>1541.79</ele>
        <time>2018-08-20T10:57:10.000Z</time>
      </trkpt>
      <trkpt lat="45.44844" lon="6.70346">
        <ele>1541.86</ele>
        <time>2018-08-20T10:57:20.000Z</time>
      </trkpt>
      <trkpt lat="45.44835" lon="6.70331">
        <ele>1541.7</ele>
        <time>2018-08-20T10:57:30.000Z</time>
      </trkpt>
      <trkpt lat="45.44831" lon="6.70316">
        <ele>1539.45</ele>
        <time>2018-08-20T10:57:40.000Z</time>
      </trkpt>
      <trkpt lat="45.4483" lon="6.70302">
        <ele>1539.36</ele>
        <time>2018-08-20T10:57:50.000Z</time>
      </trkpt>
      <trkpt lat="45.44825" lon="6.70291">
        <ele>1538.1</ele>
        <time>2018-08-20T10:58:00.000Z</time>
      </trkpt>
      <trkpt lat="45.44822" lon="6.70278">
        <ele>1536.93</ele>
        <time>2018-08-20T10:58:10.000Z</time>
      </trkpt>
      <trkpt lat="45.44817" lon="6.70265">
        <ele>1536.42</ele>
        <time>2018-08-20T10:58:20.000Z</time>
      </trkpt>
      <trkpt lat="45.4481" lon="6.70253">
        <ele>1535.17</ele>
        <time>2018-08-20T10:58:30.000Z</time>
      </trkpt>
      <trkpt lat="45.44807" lon="6.70245">
        <ele>1532.69</ele>
        <time>2018-08-20T10:58:40.000Z</time>
      </trkpt>
      <trkpt lat="45.44805" lon="6.70241">
        <ele>1533.01</ele>
        <time>2018-08-20T10:58:50.000Z</time>
      </trkpt>
      <trkpt lat="45.44805" lon="6.7024">
        <ele>1534.53</ele>
        <time>2018-08-20T10:59:04.000Z</time>
      </trkpt>
      <trkpt lat="45.44807" lon="6.7023">
        <ele>1533.33</ele>
        <time>2018-08-20T10:59:14.000Z</time>
      </trkpt>
      <trkpt lat="45.44809" lon="6.70213">
        <ele>1530.8</ele>
        <time>2018-08-20T10:59:24.000Z</time>
      </trkpt>
      <trkpt lat="45.44806" lon="6.702">
        <ele>1527.34</ele>
        <time>2018-08-20T10:59:34.000Z</time>
      </trkpt>
      <trkpt lat="45.44802" lon="6.70189">
        <ele>1526.3</ele>
        <time>2018-08-20T10:59:44.000Z</time>
      </trkpt>
      <trkpt lat="45.44793" lon="6.70173">
        <ele>1522.84</ele>
        <time>2018-08-20T10:59:54.000Z</time>
      </trkpt>
      <trkpt lat="45.44787" lon="6.70158">
        <ele>1521.91</ele>
        <time>2018-08-20T11:00:04.000Z</time>
      </trkpt>
      <trkpt lat="45.44782" lon="6.70146">
        <ele>1518.45</ele>
        <time>2018-08-20T11:00:14.000Z</time>
      </trkpt>
      <trkpt lat="45.44773" lon="6.70134">
        <ele>1514.63</ele>
        <time>2018-08-20T11:00:24.000Z</time>
      </trkpt>
      <trkpt lat="45.44769" lon="6.70127">
        <ele>1513.87</ele>
        <time>2018-08-20T11:00:34.000Z</time>
      </trkpt>
      <trkpt lat="45.44762" lon="6.70115">
        <ele>1510.48</ele>
        <time>2018-08-20T11:00:44.000Z</time>
      </trkpt>
      <trkpt lat="45.44755" lon="6.7011">
        <ele>1508.25</ele>
        <time>2018-08-20T11:00:54.000Z</time>
      </trkpt>
      <trkpt lat="45.44752" lon="6.70106">
        <ele>1508.44</ele>
        <time>2018-08-20T11:01:04.000Z</time>
      </trkpt>
      <trkpt lat="45.44738" lon="6.701">
        <ele>1507.19</ele>
        <time>2018-08-20T11:01:14.000Z</time>
      </trkpt>
      <trkpt lat="45.44737" lon="6.70101">
        <ele>1506.62</ele>
        <time>2018-08-20T11:01:24.000Z</time>
      </trkpt>
      <trkpt lat="45.44739" lon="6.70101">
        <ele>1507.54</ele>
        <time>2018-08-20T11:01:34.000Z</time>
      </trkpt>
      <trkpt lat="45.44743" lon="6.70103">
        <ele>1509.98</ele>
        <time>2018-08-20T11:01:44.000Z</time>
      </trkpt>
      <trkpt lat="45.44744" lon="6.70102">
        <ele>1510.13</ele>
        <time>2018-08-20T11:02:03.000Z</time>
      </trkpt>
      <trkpt lat="45.44749" lon="6.70112">
        <ele>1507.11</ele>
        <time>2018-08-20T11:02:13.000Z</time>
      </trkpt>
      <trkpt lat="45.44755" lon="6.70119">
        <ele>1503.79</ele>
        <time>2018-08-20T11:02:23.000Z</time>
      </trkpt>
      <trkpt lat="45.44768" lon="6.70124">
        <ele>1499.31</ele>
        <time>2018-08-20T11:02:33.000Z</time>
      </trkpt>
      <trkpt lat="45.44777" lon="6.7013">
        <ele>1496.58</ele>
        <time>2018-08-20T11:02:43.000Z</time>
      </trkpt>
      <trkpt lat="45.44784" lon="6.70137">
        <ele>1495.78</ele>
        <time>2018-08-20T11:02:53.000Z</time>
      </trkpt>
      <trkpt lat="45.4479" lon="6.70145">
        <ele>1495.27</ele>
        <time>2018-08-20T11:03:03.000Z</time>
      </trkpt>
      <trkpt lat="45.44797" lon="6.70153">
        <ele>1496.25</ele>
        <time>2018-08-20T11:03:13.000Z</time>
      </trkpt>
      <trkpt lat="45.448" lon="6.70157">
        <ele>1495.19</ele>
        <time>2018-08-20T11:03:23.000Z</time>
      </trkpt>
      <trkpt lat="45.44809" lon="6.70162">
        <ele>1493.46</ele>
        <time>2018-08-20T11:03:33.000Z</time>
      </trkpt>
      <trkpt lat="45.44818" lon="6.70158">
        <ele>1492.11</ele>
        <time>2018-08-20T11:03:43.000Z</time>
      </trkpt>
      <trkpt lat="45.44825" lon="6.70156">
        <ele>1492.63</ele>
        <time>2018-08-20T11:03:53.000Z</time>
      </trkpt>
      <trkpt lat="45.44828" lon="6.70154">
        <ele>1492.64</ele>
        <time>2018-08-20T11:04:03.000Z</time>
      </trkpt>
      <trkpt lat="45.44836" lon="6.70146">
        <ele>1491.99</ele>
        <time>2018-08-20T11:04:13.000Z</time>
      </trkpt>
      <trkpt lat="45.44848" lon="6.7014">
        <ele>1491.77</ele>
        <time>2018-08-20T11:04:23.000Z</time>
      </trkpt>
      <trkpt lat="45.44854" lon="6.70129">
        <ele>1488.19</ele>
        <time>2018-08-20T11:04:33.000Z</time>
      </trkpt>
      <trkpt lat="45.44859" lon="6.7013">
        <ele>1482.16</ele>
        <time>2018-08-20T11:04:43.000Z</time>
      </trkpt>
      <trkpt lat="45.4486" lon="6.70134">
        <ele>1481.38</ele>
        <time>2018-08-20T11:04:53.000Z</time>
      </trkpt>
      <trkpt lat="45.44862" lon="6.70134">
        <ele>1480.98</ele>
        <time>2018-08-20T11:05:03.000Z</time>
      </trkpt>
      <trkpt lat="45.4487" lon="6.70139">
        <ele>1478.8</ele>
        <time>2018-08-20T11:05:13.000Z</time>
      </trkpt>
      <trkpt lat="45.44873" lon="6.70142">
        <ele>1477.52</ele>
        <time>2018-08-20T11:05:23.000Z</time>
      </trkpt>
      <trkpt lat="45.44877" lon="6.70146">
        <ele>1476.86</ele>
        <time>2018-08-20T11:05:33.000Z</time>
      </trkpt>
      <trkpt lat="45.44878" lon="6.70147">
        <ele>1476.76</ele>
        <time>2018-08-20T11:05:43.000Z</time>
      </trkpt>
      <trkpt lat="45.44879" lon="6.70152">
        <ele>1475.7</ele>
        <time>2018-08-20T11:05:52.999Z</time>
      </trkpt>
      <trkpt lat="45.44881" lon="6.70154">
        <ele>1475.12</ele>
        <time>2018-08-20T11:06:03.000Z</time>
      </trkpt>
      <trkpt lat="45.44887" lon="6.70165">
        <ele>1472.45</ele>
        <time>2018-08-20T11:06:13.000Z</time>
      </trkpt>
      <trkpt lat="45.44886" lon="6.70181">
        <ele>1469.7</ele>
        <time>2018-08-20T11:06:23.000Z</time>
      </trkpt>
      <trkpt lat="45.44888" lon="6.70184">
        <ele>1467.09</ele>
        <time>2018-08-20T11:06:33.000Z</time>
      </trkpt>
      <trkpt lat="45.44887" lon="6.7018">
        <ele>1467.03</ele>
        <time>2018-08-20T11:07:17.000Z</time>
      </trkpt>
      <trkpt lat="45.4489" lon="6.7015">
        <ele>1466.93</ele>
        <time>2018-08-20T11:07:27.000Z</time>
      </trkpt>
      <trkpt lat="45.44893" lon="6.70149">
        <ele>1465.46</ele>
        <time>2018-08-20T11:07:37.000Z</time>
      </trkpt>
      <trkpt lat="45.44898" lon="6.70163">
        <ele>1460.73</ele>
        <time>2018-08-20T11:07:47.000Z</time>
      </trkpt>
      <trkpt lat="45.44902" lon="6.70172">
        <ele>1458.53</ele>
        <time>2018-08-20T11:07:57.000Z</time>
      </trkpt>
      <trkpt lat="45.4491" lon="6.7018">
        <ele>1451.37</ele>
        <time>2018-08-20T11:08:07.000Z</time>
      </trkpt>
      <trkpt lat="45.44914" lon="6.70187">
        <ele>1446.11</ele>
        <time>2018-08-20T11:08:17.000Z</time>
      </trkpt>
      <trkpt lat="45.44922" lon="6.70195">
        <ele>1443.24</ele>
        <time>2018-08-20T11:08:27.000Z</time>
      </trkpt>
      <trkpt lat="45.44926" lon="6.70199">
        <ele>1444.35</ele>
        <time>2018-08-20T11:08:37.000Z</time>
      </trkpt>
      <trkpt lat="45.44929" lon="6.702">
        <ele>1442.96</ele>
        <time>2018-08-20T11:08:47.000Z</time>
      </trkpt>
      <trkpt lat="45.44936" lon="6.7021">
        <ele>1436.01</ele>
        <time>2018-08-20T11:08:57.000Z</time>
      </trkpt>
      <trkpt lat="45.4494" lon="6.70214">
        <ele>1433.88</ele>
        <time>2018-08-20T11:09:07.000Z</time>
      </trkpt>
      <trkpt lat="45.44948" lon="6.70227">
        <ele>1430</ele>
        <time>2018-08-20T11:09:17.000Z</time>
      </trkpt>
      <trkpt lat="45.44957" lon="6.70237">
        <ele>1426.17</ele>
        <time>2018-08-20T11:09:27.000Z</time>
      </trkpt>
      <trkpt lat="45.4496" lon="6.70242">
        <ele>1424.18</ele>
        <time>2018-08-20T11:09:37.000Z</time>
      </trkpt>
      <trkpt lat="45.4497" lon="6.70254">
        <ele>1425.88</ele>
        <time>2018-08-20T11:09:47.000Z</time>
      </trkpt>
      <trkpt lat="45.44984" lon="6.70262">
        <ele>1426.5</ele>
        <time>2018-08-20T11:09:57.000Z</time>
      </trkpt>
      <trkpt lat="45.44985" lon="6.70263">
        <ele>1425.72</ele>
        <time>2018-08-20T11:10:12.000Z</time>
      </trkpt>
      <trkpt lat="45.44992" lon="6.7027">
        <ele>1422.99</ele>
        <time>2018-08-20T11:10:22.000Z</time>
      </trkpt>
      <trkpt lat="45.44995" lon="6.70272">
        <ele>1421.81</ele>
        <time>2018-08-20T11:10:32.000Z</time>
      </trkpt>
      <trkpt lat="45.45002" lon="6.70268">
        <ele>1419.16</ele>
        <time>2018-08-20T11:10:42.000Z</time>
      </trkpt>
      <trkpt lat="45.45003" lon="6.70268">
        <ele>1416.25</ele>
        <time>2018-08-20T11:10:52.000Z</time>
      </trkpt>
      <trkpt lat="45.45006" lon="6.7027">
        <ele>1414.55</ele>
        <time>2018-08-20T11:11:02.000Z</time>
      </trkpt>
      <trkpt lat="45.4501" lon="6.70275">
        <ele>1412.49</ele>
        <time>2018-08-20T11:11:12.000Z</time>
      </trkpt>
      <trkpt lat="45.45012" lon="6.70278">
        <ele>1411.52</ele>
        <time>2018-08-20T11:11:22.000Z</time>
      </trkpt>
      <trkpt lat="45.45015" lon="6.70278">
        <ele>1410.48</ele>
        <time>2018-08-20T11:11:57.000Z</time>
      </trkpt>
      <trkpt lat="45.45044" lon="6.7029">
        <ele>1407.2</ele>
        <time>2018-08-20T11:12:07.000Z</time>
      </trkpt>
      <trkpt lat="45.45046" lon="6.70296">
        <ele>1403.85</ele>
        <time>2018-08-20T11:12:17.000Z</time>
      </trkpt>
      <trkpt lat="45.45052" lon="6.70302">
        <ele>1399.68</ele>
        <time>2018-08-20T11:12:27.000Z</time>
      </trkpt>
      <trkpt lat="45.45054" lon="6.70309">
        <ele>1397.08</ele>
        <time>2018-08-20T11:12:37.000Z</time>
      </trkpt>
      <trkpt lat="45.45055" lon="6.7032">
        <ele>1390.58</ele>
        <time>2018-08-20T11:12:47.000Z</time>
      </trkpt>
      <trkpt lat="45.45067" lon="6.70326">
        <ele>1387.75</ele>
        <time>2018-08-20T11:12:57.000Z</time>
      </trkpt>
      <trkpt lat="45.45068" lon="6.70325">
        <ele>1387.04</ele>
        <time>2018-08-20T11:13:07.000Z</time>
      </trkpt>
      <trkpt lat="45.45071" lon="6.7031">
        <ele>1380.46</ele>
        <time>2018-08-20T11:13:17.000Z</time>
      </trkpt>
      <trkpt lat="45.45077" lon="6.70303">
        <ele>1376.71</ele>
        <time>2018-08-20T11:13:27.000Z</time>
      </trkpt>
      <trkpt lat="45.45078" lon="6.70304">
        <ele>1375.97</ele>
        <time>2018-08-20T11:13:48.000Z</time>
      </trkpt>
      <trkpt lat="45.45079" lon="6.7031">
        <ele>1370.69</ele>
        <time>2018-08-20T11:13:58.000Z</time>
      </trkpt>
      <trkpt lat="45.45079" lon="6.70313">
        <ele>1367.36</ele>
        <time>2018-08-20T11:14:08.000Z</time>
      </trkpt>
      <trkpt lat="45.4508" lon="6.70312">
        <ele>1366.88</ele>
        <time>2018-08-20T11:14:24.000Z</time>
      </trkpt>
      <trkpt lat="45.45084" lon="6.70302">
        <ele>1361.3</ele>
        <time>2018-08-20T11:14:34.000Z</time>
      </trkpt>
      <trkpt lat="45.45084" lon="6.70293">
        <ele>1356.15</ele>
        <time>2018-08-20T11:14:44.000Z</time>
      </trkpt>
      <trkpt lat="45.45083" lon="6.70292">
        <ele>1355.38</ele>
        <time>2018-08-20T11:14:54.000Z</time>
      </trkpt>
      <trkpt lat="45.45086" lon="6.70278">
        <ele>1349.99</ele>
        <time>2018-08-20T11:15:04.000Z</time>
      </trkpt>
      <trkpt lat="45.4509" lon="6.70269">
        <ele>1348.91</ele>
        <time>2018-08-20T11:15:14.000Z</time>
      </trkpt>
      <trkpt lat="45.45094" lon="6.70256">
        <ele>1345.48</ele>
        <time>2018-08-20T11:15:24.000Z</time>
      </trkpt>
      <trkpt lat="45.451" lon="6.70248">
        <ele>1345.39</ele>
        <time>2018-08-20T11:15:34.000Z</time>
      </trkpt>
      <trkpt lat="45.45094" lon="6.70242">
        <ele>1344.48</ele>
        <time>2018-08-20T11:15:44.000Z</time>
      </trkpt>
      <trkpt lat="45.45081" lon="6.70226">
        <ele>1343.3</ele>
        <time>2018-08-20T11:15:54.000Z</time>
      </trkpt>
      <trkpt lat="45.45077" lon="6.70214">
        <ele>1340.8</ele>
        <time>2018-08-20T11:16:04.000Z</time>
      </trkpt>
      <trkpt lat="45.45072" lon="6.70201">
        <ele>1338.4</ele>
        <time>2018-08-20T11:16:14.000Z</time>
      </trkpt>
      <trkpt lat="45.45067" lon="6.70189">
        <ele>1336.36</ele>
        <time>2018-08-20T11:16:24.000Z</time>
      </trkpt>
      <trkpt lat="45.45064" lon="6.70182">
        <ele>1334.74</ele>
        <time>2018-08-20T11:16:34.000Z</time>
      </trkpt>
      <trkpt lat="45.45061" lon="6.70183">
        <ele>1335.15</ele>
        <time>2018-08-20T11:16:44.000Z</time>
      </trkpt>
      <trkpt lat="45.45059" lon="6.70185">
        <ele>1334.7</ele>
        <time>2018-08-20T11:16:54.000Z</time>
      </trkpt>
      <trkpt lat="45.45059" lon="6.70184">
        <ele>1334.78</ele>
        <time>2018-08-20T11:17:05.000Z</time>
      </trkpt>
      <trkpt lat="45.45061" lon="6.70182">
        <ele>1333.56</ele>
        <time>2018-08-20T11:17:39.000Z</time>
      </trkpt>
      <trkpt lat="45.45055" lon="6.70164">
        <ele>1331.28</ele>
        <time>2018-08-20T11:17:49.000Z</time>
      </trkpt>
      <trkpt lat="45.45051" lon="6.70159">
        <ele>1331.07</ele>
        <time>2018-08-20T11:17:59.000Z</time>
      </trkpt>
      <trkpt lat="45.45043" lon="6.70149">
        <ele>1330.99</ele>
        <time>2018-08-20T11:18:09.000Z</time>
      </trkpt>
      <trkpt lat="45.4504" lon="6.70144">
        <ele>1330.9</ele>
        <time>2018-08-20T11:18:19.000Z</time>
      </trkpt>
      <trkpt lat="45.45028" lon="6.70126">
        <ele>1335.98</ele>
        <time>2018-08-20T11:18:29.000Z</time>
      </trkpt>
      <trkpt lat="45.45018" lon="6.70107">
        <ele>1338.62</ele>
        <time>2018-08-20T11:18:39.000Z</time>
      </trkpt>
      <trkpt lat="45.45014" lon="6.70094">
        <ele>1335.36</ele>
        <time>2018-08-20T11:18:49.000Z</time>
      </trkpt>
      <trkpt lat="45.4501" lon="6.70082">
        <ele>1331.97</ele>
        <time>2018-08-20T11:18:59.000Z</time>
      </trkpt>
      <trkpt lat="45.45005" lon="6.70073">
        <ele>1330.37</ele>
        <time>2018-08-20T11:19:09.000Z</time>
      </trkpt>
      <trkpt lat="45.45002" lon="6.70063">
        <ele>1328.98</ele>
        <time>2018-08-20T11:19:19.000Z</time>
      </trkpt>
      <trkpt lat="45.45001" lon="6.70052">
        <ele>1328.31</ele>
        <time>2018-08-20T11:19:29.000Z</time>
      </trkpt>
      <trkpt lat="45.44999" lon="6.70044">
        <ele>1328.41</ele>
        <time>2018-08-20T11:19:39.000Z</time>
      </trkpt>
      <trkpt lat="45.44994" lon="6.70036">
        <ele>1328.57</ele>
        <time>2018-08-20T11:19:49.000Z</time>
      </trkpt>
      <trkpt lat="45.44991" lon="6.70026">
        <ele>1329.21</ele>
        <time>2018-08-20T11:19:59.000Z</time>
      </trkpt>
      <trkpt lat="45.44983" lon="6.70005">
        <ele>1327.89</ele>
        <time>2018-08-20T11:20:09.000Z</time>
      </trkpt>
      <trkpt lat="45.44987" lon="6.69991">
        <ele>1326.93</ele>
        <time>2018-08-20T11:20:19.000Z</time>
      </trkpt>
      <trkpt lat="45.44989" lon="6.69982">
        <ele>1327.29</ele>
        <time>2018-08-20T11:20:29.000Z</time>
      </trkpt>
      <trkpt lat="45.4499" lon="6.6997">
        <ele>1325.01</ele>
        <time>2018-08-20T11:20:39.000Z</time>
      </trkpt>
      <trkpt lat="45.44987" lon="6.69958">
        <ele>1321.94</ele>
        <time>2018-08-20T11:20:49.000Z</time>
      </trkpt>
      <trkpt lat="45.44982" lon="6.69946">
        <ele>1319.88</ele>
        <time>2018-08-20T11:20:59.000Z</time>
      </trkpt>
      <trkpt lat="45.44979" lon="6.69935">
        <ele>1318.53</ele>
        <time>2018-08-20T11:21:09.000Z</time>
      </trkpt>
      <trkpt lat="45.44976" lon="6.69923">
        <ele>1319.28</ele>
        <time>2018-08-20T11:21:19.000Z</time>
      </trkpt>
      <trkpt lat="45.44967" lon="6.69912">
        <ele>1317.54</ele>
        <time>2018-08-20T11:21:29.000Z</time>
      </trkpt>
      <trkpt lat="45.44954" lon="6.69899">
        <ele>1315.08</ele>
        <time>2018-08-20T11:21:39.000Z</time>
      </trkpt>
      <trkpt lat="45.44955" lon="6.69899">
        <ele>1314.54</ele>
        <time>2018-08-20T11:21:49.000Z</time>
      </trkpt>
      <trkpt lat="45.44956" lon="6.69898">
        <ele>1314.82</ele>
        <time>2018-08-20T11:22:02.000Z</time>
      </trkpt>
      <trkpt lat="45.44961" lon="6.69884">
        <ele>1318.39</ele>
        <time>2018-08-20T11:22:12.000Z</time>
      </trkpt>
      <trkpt lat="45.44967" lon="6.69875">
        <ele>1321.5</ele>
        <time>2018-08-20T11:22:22.000Z</time>
      </trkpt>
      <trkpt lat="45.44972" lon="6.69869">
        <ele>1321.74</ele>
        <time>2018-08-20T11:22:32.000Z</time>
      </trkpt>
      <trkpt lat="45.44975" lon="6.69863">
        <ele>1318.99</ele>
        <time>2018-08-20T11:22:42.000Z</time>
      </trkpt>
      <trkpt lat="45.44975" lon="6.69865">
        <ele>1319.42</ele>
        <time>2018-08-20T11:22:59.000Z</time>
      </trkpt>
      <trkpt lat="45.44981" lon="6.69872">
        <ele>1317.83</ele>
        <time>2018-08-20T11:23:09.000Z</time>
      </trkpt>
      <trkpt lat="45.44985" lon="6.69873">
        <ele>1315.72</ele>
        <time>2018-08-20T11:23:19.000Z</time>
      </trkpt>
      <trkpt lat="45.44986" lon="6.69876">
        <ele>1315.61</ele>
        <time>2018-08-20T11:23:55.000Z</time>
      </trkpt>
      <trkpt lat="45.44983" lon="6.69878">
        <ele>1315.67</ele>
        <time>2018-08-20T11:24:12.000Z</time>
      </trkpt>
      <trkpt lat="45.44967" lon="6.6988">
        <ele>1315.57</ele>
        <time>2018-08-20T11:24:22.000Z</time>
      </trkpt>
      <trkpt lat="45.44995" lon="6.6992">
        <ele>1325.17</ele>
        <time>2018-08-20T11:24:37.000Z</time>
      </trkpt>
      <trkpt lat="45.45006" lon="6.69902">
        <ele>1319.81</ele>
        <time>2018-08-20T11:24:47.000Z</time>
      </trkpt>
      <trkpt lat="45.44995" lon="6.69891">
        <ele>1311.48</ele>
        <time>2018-08-20T11:24:57.000Z</time>
      </trkpt>
      <trkpt lat="45.44987" lon="6.69895">
        <ele>1285.57</ele>
        <time>2018-08-20T11:25:07.000Z</time>
      </trkpt>
      <trkpt lat="45.44986" lon="6.69892">
        <ele>1293.62</ele>
        <time>2018-08-20T11:25:17.000Z</time>
      </trkpt>
      <trkpt lat="45.44988" lon="6.69893">
        <ele>1294.27</ele>
        <time>2018-08-20T11:25:31.000Z</time>
      </trkpt>
      <trkpt lat="45.44995" lon="6.69895">
        <ele>1293.28</ele>
        <time>2018-08-20T11:25:41.000Z</time>
      </trkpt>
      <trkpt lat="45.45003" lon="6.69897">
        <ele>1292.71</ele>
        <time>2018-08-20T11:25:51.000Z</time>
      </trkpt>
      <trkpt lat="45.45013" lon="6.69905">
        <ele>1291.14</ele>
        <time>2018-08-20T11:26:01.000Z</time>
      </trkpt>
      <trkpt lat="45.45016" lon="6.69907">
        <ele>1292.19</ele>
        <time>2018-08-20T11:26:11.000Z</time>
      </trkpt>
      <trkpt lat="45.45024" lon="6.69918">
        <ele>1291.1</ele>
        <time>2018-08-20T11:26:21.000Z</time>
      </trkpt>
      <trkpt lat="45.45032" lon="6.69927">
        <ele>1288.25</ele>
        <time>2018-08-20T11:26:31.000Z</time>
      </trkpt>
      <trkpt lat="45.45047" lon="6.69942">
        <ele>1289.42</ele>
        <time>2018-08-20T11:26:41.000Z</time>
      </trkpt>
      <trkpt lat="45.45048" lon="6.69944">
        <ele>1291.15</ele>
        <time>2018-08-20T11:26:51.000Z</time>
      </trkpt>
      <trkpt lat="45.45057" lon="6.69957">
        <ele>1288.84</ele>
        <time>2018-08-20T11:27:01.000Z</time>
      </trkpt>
      <trkpt lat="45.4507" lon="6.69973">
        <ele>1282.63</ele>
        <time>2018-08-20T11:27:11.000Z</time>
      </trkpt>
      <trkpt lat="45.45077" lon="6.69981">
        <ele>1280.4</ele>
        <time>2018-08-20T11:27:21.000Z</time>
      </trkpt>
      <trkpt lat="45.45084" lon="6.69996">
        <ele>1279.28</ele>
        <time>2018-08-20T11:27:31.000Z</time>
      </trkpt>
      <trkpt lat="45.45088" lon="6.70007">
        <ele>1277.42</ele>
        <time>2018-08-20T11:27:41.000Z</time>
      </trkpt>
      <trkpt lat="45.45095" lon="6.70005">
        <ele>1278.64</ele>
        <time>2018-08-20T11:27:51.000Z</time>
      </trkpt>
      <trkpt lat="45.45096" lon="6.70007">
        <ele>1279.71</ele>
        <time>2018-08-20T11:28:02.000Z</time>
      </trkpt>
      <trkpt lat="45.45111" lon="6.70018">
        <ele>1278.58</ele>
        <time>2018-08-20T11:28:12.000Z</time>
      </trkpt>
      <trkpt lat="45.45115" lon="6.70024">
        <ele>1275.16</ele>
        <time>2018-08-20T11:28:22.000Z</time>
      </trkpt>
      <trkpt lat="45.45125" lon="6.70036">
        <ele>1265.99</ele>
        <time>2018-08-20T11:28:32.000Z</time>
      </trkpt>
      <trkpt lat="45.45137" lon="6.70041">
        <ele>1261.72</ele>
        <time>2018-08-20T11:28:42.000Z</time>
      </trkpt>
      <trkpt lat="45.45147" lon="6.70042">
        <ele>1261.1</ele>
        <time>2018-08-20T11:28:52.000Z</time>
      </trkpt>
      <trkpt lat="45.45156" lon="6.70045">
        <ele>1258.34</ele>
        <time>2018-08-20T11:29:02.000Z</time>
      </trkpt>
      <trkpt lat="45.45165" lon="6.70052">
        <ele>1256.73</ele>
        <time>2018-08-20T11:29:12.000Z</time>
      </trkpt>
      <trkpt lat="45.4517" lon="6.70059">
        <ele>1253.88</ele>
        <time>2018-08-20T11:29:22.000Z</time>
      </trkpt>
      <trkpt lat="45.45175" lon="6.70073">
        <ele>1253.14</ele>
        <time>2018-08-20T11:29:32.000Z</time>
      </trkpt>
      <trkpt lat="45.45176" lon="6.70079">
        <ele>1253.57</ele>
        <time>2018-08-20T11:29:42.000Z</time>
      </trkpt>
      <trkpt lat="45.45177" lon="6.70077">
        <ele>1253.77</ele>
        <time>2018-08-20T11:29:56.000Z</time>
      </trkpt>
      <trkpt lat="45.45187" lon="6.70076">
        <ele>1253.61</ele>
        <time>2018-08-20T11:30:06.000Z</time>
      </trkpt>
      <trkpt lat="45.45189" lon="6.7008">
        <ele>1254.78</ele>
        <time>2018-08-20T11:30:16.000Z</time>
      </trkpt>
      <trkpt lat="45.45272" lon="6.70083">
        <ele>1247.83</ele>
        <time>2018-08-20T11:31:52.000Z</time>
      </trkpt>
      <trkpt lat="45.45281" lon="6.70088">
        <ele>1246.27</ele>
        <time>2018-08-20T11:32:02.000Z</time>
      </trkpt>
      <trkpt lat="45.45284" lon="6.70088">
        <ele>1247.86</ele>
        <time>2018-08-20T11:32:12.000Z</time>
      </trkpt>
      <trkpt lat="45.45291" lon="6.70095">
        <ele>1247.16</ele>
        <time>2018-08-20T11:32:22.000Z</time>
      </trkpt>
      <trkpt lat="45.45294" lon="6.70096">
        <ele>1246.61</ele>
        <time>2018-08-20T11:32:32.000Z</time>
      </trkpt>
      <trkpt lat="45.453" lon="6.70103">
        <ele>1243.56</ele>
        <time>2018-08-20T11:32:42.000Z</time>
      </trkpt>
      <trkpt lat="45.45309" lon="6.70122">
        <ele>1234.9</ele>
        <time>2018-08-20T11:32:52.000Z</time>
      </trkpt>
      <trkpt lat="45.45311" lon="6.70143">
        <ele>1236.16</ele>
        <time>2018-08-20T11:33:02.000Z</time>
      </trkpt>
      <trkpt lat="45.45317" lon="6.70151">
        <ele>1236.63</ele>
        <time>2018-08-20T11:33:12.000Z</time>
      </trkpt>
      <trkpt lat="45.45333" lon="6.70145">
        <ele>1238.56</ele>
        <time>2018-08-20T11:33:22.000Z</time>
      </trkpt>
      <trkpt lat="45.45346" lon="6.7013">
        <ele>1242.32</ele>
        <time>2018-08-20T11:33:32.000Z</time>
      </trkpt>
      <trkpt lat="45.45342" lon="6.70114">
        <ele>1244.59</ele>
        <time>2018-08-20T11:33:42.000Z</time>
      </trkpt>
      <trkpt lat="45.45337" lon="6.701">
        <ele>1243.71</ele>
        <time>2018-08-20T11:33:52.000Z</time>
      </trkpt>
      <trkpt lat="45.45334" lon="6.7009">
        <ele>1240.73</ele>
        <time>2018-08-20T11:34:02.000Z</time>
      </trkpt>
      <trkpt lat="45.45332" lon="6.70077">
        <ele>1236.85</ele>
        <time>2018-08-20T11:34:12.000Z</time>
      </trkpt>
      <trkpt lat="45.45335" lon="6.7006">
        <ele>1238.62</ele>
        <time>2018-08-20T11:34:22.000Z</time>
      </trkpt>
      <trkpt lat="45.45337" lon="6.70044">
        <ele>1236.86</ele>
        <time>2018-08-20T11:34:32.000Z</time>
      </trkpt>
      <trkpt lat="45.45338" lon="6.7003">
        <ele>1237.68</ele>
        <time>2018-08-20T11:34:42.000Z</time>
      </trkpt>
      <trkpt lat="45.4534" lon="6.70015">
        <ele>1239.16</ele>
        <time>2018-08-20T11:34:52.000Z</time>
      </trkpt>
      <trkpt lat="45.45341" lon="6.70001">
        <ele>1240.09</ele>
        <time>2018-08-20T11:35:02.000Z</time>
      </trkpt>
      <trkpt lat="45.45342" lon="6.69992">
        <ele>1241.17</ele>
        <time>2018-08-20T11:35:12.000Z</time>
      </trkpt>
      <trkpt lat="45.45345" lon="6.6998">
        <ele>1239.39</ele>
        <time>2018-08-20T11:35:22.000Z</time>
      </trkpt>
      <trkpt lat="45.4535" lon="6.69967">
        <ele>1238.53</ele>
        <time>2018-08-20T11:35:32.000Z</time>
      </trkpt>
      <trkpt lat="45.45353" lon="6.69961">
        <ele>1237.57</ele>
        <time>2018-08-20T11:35:42.000Z</time>
      </trkpt>
      <trkpt lat="45.45357" lon="6.69965">
        <ele>1242.3</ele>
        <time>2018-08-20T11:35:52.000Z</time>
      </trkpt>
      <trkpt lat="45.4536" lon="6.69965">
        <ele>1244.57</ele>
        <time>2018-08-20T11:36:02.000Z</time>
      </trkpt>
      <trkpt lat="45.45363" lon="6.69965">
        <ele>1245.48</ele>
        <time>2018-08-20T11:36:12.000Z</time>
      </trkpt>
      <trkpt lat="45.45369" lon="6.69959">
        <ele>1247.86</ele>
        <time>2018-08-20T11:36:22.000Z</time>
      </trkpt>
      <trkpt lat="45.4538" lon="6.69948">
        <ele>1247.14</ele>
        <time>2018-08-20T11:36:32.000Z</time>
      </trkpt>
      <trkpt lat="45.4539" lon="6.69938">
        <ele>1247.8</ele>
        <time>2018-08-20T11:36:42.000Z</time>
      </trkpt>
      <trkpt lat="45.45398" lon="6.69926">
        <ele>1248</ele>
        <time>2018-08-20T11:36:52.000Z</time>
      </trkpt>
      <trkpt lat="45.45405" lon="6.69915">
        <ele>1248.98</ele>
        <time>2018-08-20T11:37:02.000Z</time>
      </trkpt>
      <trkpt lat="45.45413" lon="6.69905">
        <ele>1247.27</ele>
        <time>2018-08-20T11:37:12.000Z</time>
      </trkpt>
      <trkpt lat="45.45418" lon="6.69893">
        <ele>1250.11</ele>
        <time>2018-08-20T11:37:22.000Z</time>
      </trkpt>
      <trkpt lat="45.4542" lon="6.69878">
        <ele>1250.79</ele>
        <time>2018-08-20T11:37:32.000Z</time>
      </trkpt>
      <trkpt lat="45.45426" lon="6.69869">
        <ele>1249.83</ele>
        <time>2018-08-20T11:37:42.000Z</time>
      </trkpt>
      <trkpt lat="45.45431" lon="6.69853">
        <ele>1250.83</ele>
        <time>2018-08-20T11:37:52.000Z</time>
      </trkpt>
      <trkpt lat="45.45435" lon="6.69841">
        <ele>1251.34</ele>
        <time>2018-08-20T11:38:02.000Z</time>
      </trkpt>
      <trkpt lat="45.45439" lon="6.69829">
        <ele>1251.97</ele>
        <time>2018-08-20T11:38:12.000Z</time>
      </trkpt>
      <trkpt lat="45.45442" lon="6.69814">
        <ele>1252.63</ele>
        <time>2018-08-20T11:38:22.000Z</time>
      </trkpt>
      <trkpt lat="45.4545" lon="6.69804">
        <ele>1253.07</ele>
        <time>2018-08-20T11:38:32.000Z</time>
      </trkpt>
      <trkpt lat="45.45457" lon="6.69792">
        <ele>1253.8</ele>
        <time>2018-08-20T11:38:42.000Z</time>
      </trkpt>
      <trkpt lat="45.45462" lon="6.69777">
        <ele>1255.95</ele>
        <time>2018-08-20T11:38:52.000Z</time>
      </trkpt>
      <trkpt lat="45.45467" lon="6.69763">
        <ele>1256.79</ele>
        <time>2018-08-20T11:39:02.000Z</time>
      </trkpt>
      <trkpt lat="45.4547" lon="6.69749">
        <ele>1253.97</ele>
        <time>2018-08-20T11:39:12.000Z</time>
      </trkpt>
      <trkpt lat="45.45475" lon="6.69735">
        <ele>1254.21</ele>
        <time>2018-08-20T11:39:22.000Z</time>
      </trkpt>
      <trkpt lat="45.4548" lon="6.69722">
        <ele>1252.79</ele>
        <time>2018-08-20T11:39:32.000Z</time>
      </trkpt>
      <trkpt lat="45.45483" lon="6.69708">
        <ele>1253.67</ele>
        <time>2018-08-20T11:39:42.000Z</time>
      </trkpt>
      <trkpt lat="45.45487" lon="6.69693">
        <ele>1254.2</ele>
        <time>2018-08-20T11:39:52.000Z</time>
      </trkpt>
      <trkpt lat="45.45494" lon="6.69681">
        <ele>1254.9</ele>
        <time>2018-08-20T11:40:02.000Z</time>
      </trkpt>
      <trkpt lat="45.45499" lon="6.6967">
        <ele>1254.85</ele>
        <time>2018-08-20T11:40:12.000Z</time>
      </trkpt>
      <trkpt lat="45.45497" lon="6.69659">
        <ele>1255.47</ele>
        <time>2018-08-20T11:40:22.000Z</time>
      </trkpt>
      <trkpt lat="45.45491" lon="6.69651">
        <ele>1253.67</ele>
        <time>2018-08-20T11:40:32.000Z</time>
      </trkpt>
      <trkpt lat="45.45487" lon="6.69646">
        <ele>1255.63</ele>
        <time>2018-08-20T11:40:42.000Z</time>
      </trkpt>
      <trkpt lat="45.45488" lon="6.6964">
        <ele>1254.9</ele>
        <time>2018-08-20T11:40:52.000Z</time>
      </trkpt>
      <trkpt lat="45.45487" lon="6.69638">
        <ele>1254.69</ele>
        <time>2018-08-20T11:41:07.000Z</time>
      </trkpt>
      <trkpt lat="45.45481" lon="6.69633">
        <ele>1254.44</ele>
        <time>2018-08-20T11:41:17.000Z</time>
      </trkpt>
      <trkpt lat="45.45477" lon="6.69635">
        <ele>1254.54</ele>
        <time>2018-08-20T11:41:27.000Z</time>
      </trkpt>
      <trkpt lat="45.45482" lon="6.69631">
        <ele>1254.53</ele>
        <time>2018-08-20T11:41:37.000Z</time>
      </trkpt>
      <trkpt lat="45.45476" lon="6.69626">
        <ele>1254.42</ele>
        <time>2018-08-20T11:41:47.000Z</time>
      </trkpt>
      <trkpt lat="45.45469" lon="6.69614">
        <ele>1254.5</ele>
        <time>2018-08-20T11:41:57.000Z</time>
      </trkpt>
      <trkpt lat="45.45466" lon="6.6962">
        <ele>1255.45</ele>
        <time>2018-08-20T11:42:07.000Z</time>
      </trkpt>
      <trkpt lat="45.45469" lon="6.69624">
        <ele>1255.47</ele>
        <time>2018-08-20T11:42:17.000Z</time>
      </trkpt>
      <trkpt lat="45.45493" lon="6.69629">
        <ele>1255.28</ele>
        <time>2018-08-20T11:42:41.000Z</time>
      </trkpt>
      <trkpt lat="45.45479" lon="6.69633">
        <ele>1263.31</ele>
        <time>2018-08-20T11:42:51.000Z</time>
      </trkpt>
      <trkpt lat="45.45479" lon="6.69634">
        <ele>1254.77</ele>
        <time>2018-08-20T11:43:01.000Z</time>
      </trkpt>
    </trkseg>
  </trk>
</gpx>